Wetterdaten: Sonntag, 17.11.2019
Datum Zeit Temp. Aussen Temp. o. S. Temp +5cm Feuchte Auss Luftdruck Regen Sonnenschein Regendauer Solar Windben Empfang
17.11.2019 00:00 2,0 C 1,1 C 1,1 C 94 % 1012,6 hPa 0,0 l/m 0 min 0 min 0 W/m 16,1 km/h (3 Bft) 95,74 %
17.11.2019 00:02 2,0 C 1,1 C 1,1 C 94 % 1012,7 hPa 0,0 l/m 0 min 0 min 0 W/m 16,1 km/h (3 Bft) 100,00 %
17.11.2019 00:04 2,1 C 1,7 C 1,1 C 94 % 1012,7 hPa 0,0 l/m 0 min 0 min 0 W/m 16,1 km/h (3 Bft) 97,83 %
17.11.2019 00:08 2,1 C 1,1 C 1,1 C 94 % 1012,7 hPa 0,0 l/m 0 min 0 min 0 W/m 19,3 km/h (3 Bft) 98,94 %
17.11.2019 00:10 2,1 C 1,1 C 1,1 C 94 % 1012,7 hPa 0,0 l/m 0 min 0 min 0 W/m 19,3 km/h (3 Bft) 100,00 %
17.11.2019 00:12 2,1 C 1,1 C 1,1 C 94 % 1012,7 hPa 0,0 l/m 0 min 0 min 0 W/m 19,3 km/h (3 Bft) 100,00 %
17.11.2019 00:14 2,1 C 1,1 C 1,1 C 94 % 1012,7 hPa 0,0 l/m 0 min 0 min 0 W/m 12,9 km/h (3 Bft) 97,87 %
17.11.2019 00:16 2,1 C 1,1 C 1,1 C 94 % 1012,7 hPa 0,0 l/m 0 min 0 min 0 W/m 12,9 km/h (3 Bft) 100,00 %
17.11.2019 00:18 2,1 C 1,1 C 1,1 C 94 % 1012,7 hPa 0,0 l/m 0 min 0 min 0 W/m 12,9 km/h (3 Bft) 97,87 %
17.11.2019 00:20 2,1 C 1,1 C 1,1 C 94 % 1012,7 hPa 0,0 l/m 0 min 0 min 0 W/m 12,9 km/h (3 Bft) 100,00 %
17.11.2019 00:22 2,1 C 1,1 C 1,1 C 94 % 1012,8 hPa 0,0 l/m 0 min 0 min 0 W/m 19,3 km/h (3 Bft) 100,00 %
17.11.2019 00:24 2,1 C 1,1 C 1,1 C 94 % 1012,8 hPa 0,0 l/m 0 min 0 min 0 W/m 16,1 km/h (3 Bft) 100,00 %
17.11.2019 00:26 2,1 C 1,1 C 1,1 C 94 % 1012,9 hPa 0,0 l/m 0 min 0 min 0 W/m 12,9 km/h (3 Bft) 100,00 %
17.11.2019 00:28 2,1 C 1,1 C 1,1 C 94 % 1012,9 hPa 0,0 l/m 0 min 0 min 0 W/m 16,1 km/h (3 Bft) 100,00 %
17.11.2019 00:30 2,1 C 1,1 C 1,1 C 94 % 1012,9 hPa 0,0 l/m 0 min 0 min 0 W/m 12,9 km/h (3 Bft) 100,00 %
17.11.2019 00:32 2,1 C 1,1 C 1,1 C 94 % 1012,9 hPa 0,0 l/m 0 min 0 min 0 W/m 16,1 km/h (3 Bft) 100,00 %
17.11.2019 00:34 2,1 C 1,1 C 1,1 C 95 % 1012,8 hPa 0,0 l/m 0 min 0 min 0 W/m 12,9 km/h (3 Bft) 100,00 %
17.11.2019 00:36 2,1 C 1,1 C 1,1 C 95 % 1012,8 hPa 0,0 l/m 0 min 0 min 0 W/m 12,9 km/h (3 Bft) 100,00 %
17.11.2019 00:38 2,1 C 1,1 C 1,1 C 95 % 1012,8 hPa 0,0 l/m 0 min 0 min 0 W/m 16,1 km/h (3 Bft) 100,00 %
17.11.2019 00:40 2,1 C 1,1 C 1,1 C 95 % 1012,8 hPa 0,0 l/m 0 min 0 min 0 W/m 16,1 km/h (3 Bft) 100,00 %
17.11.2019 00:42 2,1 C 1,1 C 1,1 C 95 % 1012,8 hPa 0,0 l/m 0 min 0 min 0 W/m 6,4 km/h (2 Bft) 97,87 %
17.11.2019 00:44 2,1 C 1,1 C 1,1 C 95 % 1012,8 hPa 0,0 l/m 0 min 0 min 0 W/m 12,9 km/h (3 Bft) 97,87 %
17.11.2019 00:46 2,1 C 1,1 C 1,1 C 95 % 1012,7 hPa 0,0 l/m 0 min 0 min 0 W/m 12,9 km/h (3 Bft) 95,74 %
17.11.2019 00:48 2,1 C 1,1 C 1,1 C 95 % 1012,8 hPa 0,0 l/m 0 min 0 min 0 W/m 12,9 km/h (3 Bft) 100,00 %
17.11.2019 00:50 2,1 C 1,1 C 1,1 C 95 % 1012,8 hPa 0,0 l/m 0 min 0 min 0 W/m 16,1 km/h (3 Bft) 100,00 %
17.11.2019 00:52 2,1 C 1,1 C 0,6 C 95 % 1012,8 hPa 0,0 l/m 0 min 0 min 0 W/m 16,1 km/h (3 Bft) 100,00 %
17.11.2019 00:54 2,1 C 1,1 C 0,6 C 95 % 1012,8 hPa 0,0 l/m 0 min 0 min 0 W/m 16,1 km/h (3 Bft) 97,87 %
17.11.2019 00:56 2,0 C 1,1 C 0,6 C 95 % 1012,8 hPa 0,0 l/m 0 min 0 min 0 W/m 6,4 km/h (2 Bft) 97,87 %
17.11.2019 00:58 2,0 C 1,1 C 0,6 C 95 % 1012,7 hPa 0,0 l/m 0 min 0 min 0 W/m 12,9 km/h (3 Bft) 100,00 %
17.11.2019 01:00 2,0 C 1,1 C 0,6 C 95 % 1012,7 hPa 0,0 l/m 0 min 0 min 0 W/m 6,4 km/h (2 Bft) 100,00 %
17.11.2019 01:02 2,0 C 1,1 C 0,6 C 95 % 1012,6 hPa 0,0 l/m 0 min 0 min 0 W/m 12,9 km/h (3 Bft) 95,65 %
17.11.2019 01:04 1,9 C 1,1 C 0,6 C 95 % 1012,7 hPa 0,0 l/m 0 min 0 min 0 W/m 12,9 km/h (3 Bft) 100,00 %
17.11.2019 01:06 1,9 C 1,1 C 0,6 C 95 % 1012,7 hPa 0,0 l/m 0 min 0 min 0 W/m 16,1 km/h (3 Bft) 100,00 %
17.11.2019 01:08 1,9 C 1,1 C 0,6 C 95 % 1012,8 hPa 0,0 l/m 0 min 0 min 0 W/m 16,1 km/h (3 Bft) 97,87 %
17.11.2019 01:10 1,9 C 1,1 C 0,6 C 95 % 1012,7 hPa 0,0 l/m 0 min 0 min 0 W/m 6,4 km/h (2 Bft) 97,87 %
17.11.2019 01:12 1,9 C 1,1 C 0,6 C 95 % 1012,7 hPa 0,0 l/m 0 min 0 min 0 W/m 12,9 km/h (3 Bft) 97,87 %
17.11.2019 01:14 1,9 C 1,1 C 0,6 C 95 % 1012,7 hPa 0,0 l/m 0 min 0 min 0 W/m 12,9 km/h (3 Bft) 100,00 %
17.11.2019 01:16 1,9 C 1,1 C 0,6 C 95 % 1012,8 hPa 0,0 l/m 0 min 0 min 0 W/m 16,1 km/h (3 Bft) 100,00 %
17.11.2019 01:18 1,9 C 1,1 C 0,6 C 95 % 1012,8 hPa 0,0 l/m 0 min 0 min 0 W/m 12,9 km/h (3 Bft) 100,00 %
17.11.2019 01:20 1,9 C 1,1 C 0,6 C 95 % 1012,9 hPa 0,0 l/m 0 min 0 min 0 W/m 16,1 km/h (3 Bft) 100,00 %
17.11.2019 01:22 1,9 C 1,1 C 0,6 C 95 % 1012,8 hPa 0,0 l/m 0 min 0 min 0 W/m 16,1 km/h (3 Bft) 100,00 %
17.11.2019 01:24 1,9 C 1,1 C 0,6 C 95 % 1012,7 hPa 0,0 l/m 0 min 0 min 0 W/m 16,1 km/h (3 Bft) 100,00 %
17.11.2019 01:26 1,9 C 1,1 C 0,6 C 95 % 1012,7 hPa 0,0 l/m 0 min 0 min 0 W/m 16,1 km/h (3 Bft) 95,74 %
17.11.2019 01:28 1,8 C 1,1 C 0,6 C 95 % 1012,6 hPa 0,0 l/m 0 min 0 min 0 W/m 19,3 km/h (3 Bft) 97,87 %
17.11.2019 01:30 1,9 C 1,1 C 0,6 C 95 % 1012,7 hPa 0,0 l/m 0 min 0 min 0 W/m 16,1 km/h (3 Bft) 97,87 %
17.11.2019 01:32 1,9 C 1,1 C 0,6 C 95 % 1012,7 hPa 0,0 l/m 0 min 0 min 0 W/m 16,1 km/h (3 Bft) 95,74 %
17.11.2019 01:34 1,9 C 1,1 C 0,6 C 95 % 1012,6 hPa 0,0 l/m 0 min 0 min 0 W/m 12,9 km/h (3 Bft) 95,74 %
17.11.2019 01:36 1,9 C 1,1 C 0,6 C 95 % 1012,6 hPa 0,0 l/m 0 min 0 min 0 W/m 12,9 km/h (3 Bft) 97,83 %
17.11.2019 01:38 1,9 C 1,1 C 0,6 C 95 % 1012,6 hPa 0,0 l/m 0 min 0 min 0 W/m 12,9 km/h (3 Bft) 97,87 %
17.11.2019 01:40 1,8 C 1,1 C 0,6 C 95 % 1012,6 hPa 0,0 l/m 0 min 0 min 0 W/m 12,9 km/h (3 Bft) 97,87 %
17.11.2019 01:42 1,9 C 1,1 C 0,6 C 95 % 1012,5 hPa 0,0 l/m 0 min 0 min 0 W/m 12,9 km/h (3 Bft) 95,74 %
17.11.2019 01:44 1,9 C 1,1 C 0,6 C 95 % 1012,6 hPa 0,0 l/m 0 min 0 min 0 W/m 12,9 km/h (3 Bft) 93,62 %
17.11.2019 01:46 1,9 C 1,1 C 0,6 C 95 % 1012,6 hPa 0,0 l/m 0 min 0 min 0 W/m 16,1 km/h (3 Bft) 97,87 %
17.11.2019 01:48 1,9 C 1,1 C 0,6 C 95 % 1012,6 hPa 0,0 l/m 0 min 0 min 0 W/m 16,1 km/h (3 Bft) 95,65 %
17.11.2019 01:50 1,9 C 1,1 C 0,6 C 95 % 1012,7 hPa 0,0 l/m 0 min 0 min 0 W/m 12,9 km/h (3 Bft) 95,74 %
17.11.2019 01:52 1,8 C 1,1 C 0,6 C 95 % 1012,7 hPa 0,0 l/m 0 min 0 min 0 W/m 12,9 km/h (3 Bft) 93,62 %
17.11.2019 01:54 1,8 C 1,1 C 0,6 C 95 % 1012,7 hPa 0,0 l/m 0 min 0 min 0 W/m 12,9 km/h (3 Bft) 95,74 %
17.11.2019 01:56 1,8 C 1,1 C 0,6 C 95 % 1012,8 hPa 0,0 l/m 0 min 0 min 0 W/m 16,1 km/h (3 Bft) 95,74 %
17.11.2019 01:58 1,8 C 1,1 C 0,6 C 95 % 1012,9 hPa 0,0 l/m 0 min 0 min 0 W/m 19,3 km/h (3 Bft) 93,62 %
17.11.2019 02:00 1,8 C 1,1 C 0,6 C 95 % 1012,9 hPa 0,0 l/m 0 min 0 min 0 W/m 16,1 km/h (3 Bft) 95,65 %
17.11.2019 02:02 1,8 C 1,1 C 0,6 C 95 % 1012,9 hPa 0,0 l/m 0 min 0 min 0 W/m 12,9 km/h (3 Bft) 93,62 %
17.11.2019 02:04 1,8 C 1,1 C 0,6 C 95 % 1012,9 hPa 0,0 l/m 0 min 0 min 0 W/m 12,9 km/h (3 Bft) 97,87 %
17.11.2019 02:06 1,8 C 1,1 C 0,6 C 95 % 1013,0 hPa 0,0 l/m 0 min 0 min 0 W/m 16,1 km/h (3 Bft) 95,92 %
17.11.2019 02:08 1,8 C 1,1 C 0,6 C 95 % 1013,0 hPa 0,0 l/m 0 min 0 min 0 W/m 16,1 km/h (3 Bft) 95,74 %
17.11.2019 02:10 1,8 C 1,1 C 0,6 C 95 % 1013,0 hPa 0,0 l/m 0 min 0 min 0 W/m 16,1 km/h (3 Bft) 95,65 %
17.11.2019 02:12 1,8 C 1,1 C 0,6 C 95 % 1013,0 hPa 0,0 l/m 0 min 0 min 0 W/m 16,1 km/h (3 Bft) 92,86 %
17.11.2019 02:14 1,8 C 1,1 C 0,6 C 96 % 1013,0 hPa 0,0 l/m 0 min 0 min 0 W/m 12,9 km/h (3 Bft) 96,00 %
17.11.2019 02:16 1,8 C 1,1 C 0,6 C 96 % 1013,0 hPa 0,0 l/m 0 min 0 min 0 W/m 19,3 km/h (3 Bft) 93,88 %
17.11.2019 02:18 1,8 C 1,1 C 0,6 C 96 % 1013,0 hPa 0,0 l/m 0 min 0 min 0 W/m 16,1 km/h (3 Bft) 97,87 %
17.11.2019 02:20 1,8 C 1,1 C 0,6 C 96 % 1013,0 hPa 0,0 l/m 0 min 0 min 0 W/m 12,9 km/h (3 Bft) 97,87 %
17.11.2019 02:22 1,8 C 1,1 C 0,6 C 96 % 1013,0 hPa 0,0 l/m 0 min 0 min 0 W/m 9,7 km/h (2 Bft) 95,65 %
17.11.2019 02:24 1,8 C 1,1 C 0,6 C 96 % 1013,0 hPa 0,0 l/m 0 min 0 min 0 W/m 12,9 km/h (3 Bft) 95,24 %
17.11.2019 02:26 1,8 C 1,1 C 0,6 C 96 % 1012,9 hPa 0,0 l/m 0 min 0 min 0 W/m 16,1 km/h (3 Bft) 98,00 %
17.11.2019 02:28 1,8 C 1,1 C 0,6 C 96 % 1013,0 hPa 0,0 l/m 0 min 0 min 0 W/m 16,1 km/h (3 Bft) 97,87 %
17.11.2019 02:30 1,8 C 1,1 C 0,6 C 96 % 1013,0 hPa 0,0 l/m 0 min 0 min 0 W/m 12,9 km/h (3 Bft) 97,87 %
17.11.2019 02:32 1,7 C 1,1 C 0,6 C 96 % 1012,9 hPa 0,0 l/m 0 min 0 min 0 W/m 16,1 km/h (3 Bft) 100,00 %
17.11.2019 02:34 1,7 C 1,1 C 0,6 C 96 % 1012,9 hPa 0,0 l/m 0 min 0 min 0 W/m 16,1 km/h (3 Bft) 97,83 %
17.11.2019 02:36 1,7 C 1,1 C 0,6 C 96 % 1012,8 hPa 0,0 l/m 0 min 0 min 0 W/m 6,4 km/h (2 Bft) 100,00 %
17.11.2019 02:38 1,7 C 1,1 C 0,6 C 96 % 1012,8 hPa 0,0 l/m 0 min 0 min 0 W/m 12,9 km/h (3 Bft) 97,87 %
17.11.2019 02:40 1,7 C 1,1 C 0,6 C 96 % 1012,8 hPa 0,0 l/m 0 min 0 min 0 W/m 12,9 km/h (3 Bft) 97,96 %
17.11.2019 02:42 1,7 C 1,1 C 0,6 C 96 % 1012,7 hPa 0,0 l/m 0 min 0 min 0 W/m 12,9 km/h (3 Bft) 100,00 %
17.11.2019 02:44 1,7 C 1,1 C 0,6 C 96 % 1012,8 hPa 0,0 l/m 0 min 0 min 0 W/m 12,9 km/h (3 Bft) 100,00 %
17.11.2019 02:46 1,7 C 1,1 C 0,6 C 96 % 1012,7 hPa 0,0 l/m 0 min 0 min 0 W/m 12,9 km/h (3 Bft) 100,00 %
17.11.2019 02:48 1,7 C 1,1 C 0,6 C 96 % 1012,8 hPa 0,0 l/m 0 min 0 min 0 W/m 16,1 km/h (3 Bft) 100,00 %
17.11.2019 02:50 1,7 C 1,1 C 0,6 C 96 % 1012,7 hPa 0,0 l/m 0 min 0 min 0 W/m 16,1 km/h (3 Bft) 97,87 %
17.11.2019 02:52 1,7 C 1,1 C 0,6 C 96 % 1012,7 hPa 0,0 l/m 0 min 0 min 0 W/m 6,4 km/h (2 Bft) 97,87 %
17.11.2019 02:54 1,7 C 1,1 C 0,6 C 96 % 1012,7 hPa 0,0 l/m 0 min 0 min 0 W/m 16,1 km/h (3 Bft) 95,74 %
17.11.2019 02:56 1,7 C 1,1 C 0,6 C 96 % 1012,7 hPa 0,0 l/m 0 min 0 min 0 W/m 6,4 km/h (2 Bft) 97,87 %
17.11.2019 02:58 1,7 C 1,1 C 0,6 C 96 % 1012,8 hPa 0,0 l/m 0 min 0 min 0 W/m 16,1 km/h (3 Bft) 97,83 %
17.11.2019 03:00 1,7 C 1,1 C 0,6 C 96 % 1012,8 hPa 0,0 l/m 0 min 0 min 0 W/m 16,1 km/h (3 Bft) 97,87 %
17.11.2019 03:02 1,7 C 1,1 C 0,6 C 96 % 1012,8 hPa 0,0 l/m 0 min 0 min 0 W/m 16,1 km/h (3 Bft) 97,87 %
17.11.2019 03:04 1,7 C 1,1 C 0,6 C 96 % 1012,8 hPa 0,0 l/m 0 min 0 min 0 W/m 19,3 km/h (3 Bft) 97,62 %
17.11.2019 03:06 1,7 C 1,1 C 0,6 C 96 % 1012,8 hPa 0,0 l/m 0 min 0 min 0 W/m 12,9 km/h (3 Bft) 97,87 %
17.11.2019 03:08 1,7 C 1,1 C 0,6 C 96 % 1012,7 hPa 0,0 l/m 0 min 0 min 0 W/m 12,9 km/h (3 Bft) 97,87 %
17.11.2019 03:10 1,7 C 1,1 C 0,6 C 96 % 1012,7 hPa 0,0 l/m 0 min 0 min 0 W/m 12,9 km/h (3 Bft) 95,65 %
17.11.2019 03:12 1,7 C 1,1 C 0,6 C 96 % 1012,7 hPa 0,0 l/m 0 min 0 min 0 W/m 19,3 km/h (3 Bft) 98,00 %
17.11.2019 03:14 1,7 C 1,1 C 0,6 C 96 % 1012,7 hPa 0,0 l/m 0 min 0 min 0 W/m 12,9 km/h (3 Bft) 97,87 %
17.11.2019 03:16 1,7 C 1,1 C 0,6 C 96 % 1012,6 hPa 0,0 l/m 0 min 0 min 0 W/m 16,1 km/h (3 Bft) 97,87 %
17.11.2019 03:18 1,7 C 1,1 C 0,6 C 96 % 1012,6 hPa 0,0 l/m 0 min 0 min 0 W/m 16,1 km/h (3 Bft) 97,87 %
17.11.2019 03:20 1,7 C 1,1 C 0,6 C 96 % 1012,5 hPa 0,0 l/m 0 min 0 min 0 W/m 12,9 km/h (3 Bft) 97,83 %
17.11.2019 03:22 1,7 C 1,1 C 0,6 C 96 % 1012,5 hPa 0,0 l/m 0 min 0 min 0 W/m 6,4 km/h (2 Bft) 97,87 %
17.11.2019 03:24 1,7 C 1,1 C 0,6 C 96 % 1012,4 hPa 0,0 l/m 0 min 0 min 0 W/m 12,9 km/h (3 Bft) 95,74 %
17.11.2019 03:26 1,7 C 1,1 C 0,6 C 96 % 1012,4 hPa 0,0 l/m 0 min 0 min 0 W/m 6,4 km/h (2 Bft) 100,00 %
17.11.2019 03:28 1,7 C 0,6 C 0,6 C 96 % 1012,4 hPa 0,0 l/m 0 min 0 min 0 W/m 6,4 km/h (2 Bft) 100,00 %
17.11.2019 03:30 1,7 C 0,6 C 0,6 C 96 % 1012,3 hPa 0,0 l/m 0 min 0 min 0 W/m 3,2 km/h (1 Bft) 97,87 %
17.11.2019 03:32 1,7 C 0,6 C 0,6 C 96 % 1012,3 hPa 0,0 l/m 0 min 0 min 0 W/m 6,4 km/h (2 Bft) 95,65 %
17.11.2019 03:34 1,7 C 0,6 C 0,6 C 96 % 1012,3 hPa 0,0 l/m 0 min 0 min 0 W/m 3,2 km/h (1 Bft) 97,87 %
17.11.2019 03:36 1,7 C 0,6 C 0,0 C 96 % 1012,3 hPa 0,0 l/m 0 min 0 min 0 W/m 6,4 km/h (2 Bft) 97,87 %
17.11.2019 03:38 1,7 C 0,6 C 0,6 C 96 % 1012,3 hPa 0,0 l/m 0 min 0 min 0 W/m 12,9 km/h (3 Bft) 97,87 %
17.11.2019 03:40 1,6 C 0,6 C 0,6 C 96 % 1012,3 hPa 0,0 l/m 0 min 0 min 0 W/m 6,4 km/h (2 Bft) 97,87 %
17.11.2019 03:42 1,6 C 0,6 C 0,6 C 96 % 1012,3 hPa 0,0 l/m 0 min 0 min 0 W/m 12,9 km/h (3 Bft) 97,87 %
17.11.2019 03:44 1,6 C 0,6 C 0,6 C 96 % 1012,3 hPa 0,0 l/m 0 min 0 min 0 W/m 6,4 km/h (2 Bft) 95,65 %
17.11.2019 03:46 1,6 C 0,6 C 0,0 C 96 % 1012,3 hPa 0,0 l/m 0 min 0 min 0 W/m 6,4 km/h (2 Bft) 97,87 %
17.11.2019 03:48 1,6 C 0,6 C 0,0 C 96 % 1012,3 hPa 0,0 l/m 0 min 0 min 0 W/m 12,9 km/h (3 Bft) 95,92 %
17.11.2019 03:50 1,6 C 0,6 C 0,0 C 96 % 1012,3 hPa 0,0 l/m 0 min 0 min 0 W/m 3,2 km/h (1 Bft) 95,74 %
17.11.2019 03:52 1,6 C 0,6 C 0,0 C 96 % 1012,3 hPa 0,0 l/m 0 min 0 min 0 W/m 3,2 km/h (1 Bft) 97,87 %
17.11.2019 03:54 1,5 C 0,6 C 0,0 C 96 % 1012,3 hPa 0,0 l/m 0 min 0 min 0 W/m 6,4 km/h (2 Bft) 95,74 %
17.11.2019 03:56 1,5 C 0,6 C 0,0 C 96 % 1012,3 hPa 0,0 l/m 0 min 0 min 0 W/m 6,4 km/h (2 Bft) 95,65 %
17.11.2019 03:58 1,5 C 0,6 C 0,0 C 96 % 1012,2 hPa 0,0 l/m 0 min 0 min 0 W/m 3,2 km/h (1 Bft) 95,24 %
17.11.2019 04:00 1,4 C 0,6 C 0,0 C 96 % 1012,2 hPa 0,0 l/m 0 min 0 min 0 W/m 12,9 km/h (3 Bft) 97,87 %
17.11.2019 04:02 1,4 C 0,6 C 0,0 C 96 % 1012,0 hPa 0,0 l/m 0 min 0 min 0 W/m 6,4 km/h (2 Bft) 100,00 %
17.11.2019 04:04 1,4 C 0,6 C 0,0 C 96 % 1012,0 hPa 0,0 l/m 0 min 0 min 0 W/m 16,1 km/h (3 Bft) 95,74 %
17.11.2019 04:06 1,4 C 0,6 C 0,0 C 96 % 1012,0 hPa 0,0 l/m 0 min 0 min 0 W/m 12,9 km/h (3 Bft) 95,92 %
17.11.2019 04:08 1,4 C 0,6 C 0,0 C 96 % 1012,0 hPa 0,0 l/m 0 min 0 min 0 W/m 16,1 km/h (3 Bft) 97,83 %
17.11.2019 04:10 1,4 C 0,6 C 0,0 C 96 % 1012,0 hPa 0,0 l/m 0 min 0 min 0 W/m 3,2 km/h (1 Bft) 97,87 %
17.11.2019 04:12 1,4 C 0,6 C 0,0 C 96 % 1012,0 hPa 0,0 l/m 0 min 0 min 0 W/m 12,9 km/h (3 Bft) 97,87 %
17.11.2019 04:14 1,4 C 0,6 C 0,0 C 96 % 1012,0 hPa 0,0 l/m 0 min 0 min 0 W/m 6,4 km/h (2 Bft) 100,00 %
17.11.2019 04:16 1,4 C 0,6 C 0,0 C 96 % 1012,1 hPa 0,0 l/m 0 min 0 min 0 W/m 6,4 km/h (2 Bft) 93,62 %
17.11.2019 04:18 1,4 C 0,6 C 0,0 C 96 % 1012,1 hPa 0,0 l/m 0 min 0 min 0 W/m 12,9 km/h (3 Bft) 97,87 %
17.11.2019 04:20 1,3 C 0,6 C 0,0 C 96 % 1012,0 hPa 0,0 l/m 0 min 0 min 0 W/m 12,9 km/h (3 Bft) 97,83 %
17.11.2019 04:22 1,4 C 0,6 C 0,0 C 96 % 1012,0 hPa 0,0 l/m 0 min 0 min 0 W/m 12,9 km/h (3 Bft) 93,62 %
17.11.2019 04:24 1,3 C 0,6 C 0,0 C 96 % 1012,0 hPa 0,0 l/m 0 min 0 min 0 W/m 12,9 km/h (3 Bft) 95,74 %
17.11.2019 04:26 1,3 C 0,6 C 0,0 C 96 % 1012,0 hPa 0,0 l/m 0 min 0 min 0 W/m 12,9 km/h (3 Bft) 93,62 %
17.11.2019 04:28 1,3 C 0,6 C 0,0 C 97 % 1011,9 hPa 0,0 l/m 0 min 0 min 0 W/m 6,4 km/h (2 Bft) 95,74 %
17.11.2019 04:30 1,3 C 0,6 C 0,0 C 97 % 1012,0 hPa 0,0 l/m 0 min 0 min 0 W/m 6,4 km/h (2 Bft) 95,74 %
17.11.2019 04:32 1,3 C 0,6 C 0,0 C 97 % 1012,0 hPa 0,0 l/m 0 min 0 min 0 W/m 12,9 km/h (3 Bft) 95,65 %
17.11.2019 04:34 1,3 C 0,6 C 0,0 C 97 % 1012,1 hPa 0,0 l/m 0 min 0 min 0 W/m 6,4 km/h (2 Bft) 95,74 %
17.11.2019 04:36 1,3 C 0,6 C 0,0 C 97 % 1012,1 hPa 0,0 l/m 0 min 0 min 0 W/m 12,9 km/h (3 Bft) 95,74 %
17.11.2019 04:38 1,3 C 0,6 C 0,0 C 97 % 1012,2 hPa 0,0 l/m 0 min 0 min 0 W/m 6,4 km/h (2 Bft) 91,49 %
17.11.2019 04:40 1,3 C 0,6 C 0,0 C 97 % 1012,3 hPa 0,0 l/m 0 min 0 min 0 W/m 12,9 km/h (3 Bft) 95,74 %
17.11.2019 04:42 1,3 C 0,6 C 0,0 C 97 % 1012,4 hPa 0,0 l/m 0 min 0 min 0 W/m 6,4 km/h (2 Bft) 93,62 %
17.11.2019 04:44 1,3 C 0,6 C 0,0 C 97 % 1012,4 hPa 0,0 l/m 0 min 0 min 0 W/m 6,4 km/h (2 Bft) 95,65 %
17.11.2019 04:46 1,3 C 0,6 C 0,0 C 97 % 1012,5 hPa 0,0 l/m 0 min 0 min 0 W/m 12,9 km/h (3 Bft) 95,74 %
17.11.2019 04:48 1,3 C 0,6 C 0,0 C 97 % 1012,4 hPa 0,0 l/m 0 min 0 min 0 W/m 6,4 km/h (2 Bft) 94,00 %
17.11.2019 04:50 1,3 C 0,6 C 0,0 C 97 % 1012,4 hPa 0,0 l/m 0 min 0 min 0 W/m 6,4 km/h (2 Bft) 95,74 %
17.11.2019 04:52 1,3 C 0,6 C 0,0 C 97 % 1012,4 hPa 0,0 l/m 0 min 0 min 0 W/m 12,9 km/h (3 Bft) 95,74 %
17.11.2019 04:54 1,3 C 0,6 C 0,0 C 97 % 1012,4 hPa 0,0 l/m 0 min 0 min 0 W/m 6,4 km/h (2 Bft) 51,16 %
17.11.2019 04:56 1,2 C 0,6 C 0,0 C 97 % 1012,4 hPa 0,0 l/m 0 min 0 min 0 W/m 6,4 km/h (2 Bft) 93,62 %
17.11.2019 04:58 1,2 C 0,6 C 0,0 C 97 % 1012,4 hPa 0,0 l/m 0 min 0 min 0 W/m 6,4 km/h (2 Bft) 95,74 %
17.11.2019 05:00 1,2 C 0,6 C 0,0 C 97 % 1012,3 hPa 0,0 l/m 0 min 0 min 0 W/m 6,4 km/h (2 Bft) 97,87 %
17.11.2019 05:02 1,2 C 0,6 C 0,0 C 97 % 1012,3 hPa 0,0 l/m 0 min 0 min 0 W/m 6,4 km/h (2 Bft) 95,74 %
17.11.2019 05:04 1,2 C 0,6 C 0,0 C 97 % 1012,3 hPa 0,0 l/m 0 min 0 min 0 W/m 12,9 km/h (3 Bft) 97,87 %
17.11.2019 05:06 1,2 C 0,6 C 0,0 C 97 % 1012,2 hPa 0,0 l/m 0 min 0 min 0 W/m 6,4 km/h (2 Bft) 97,83 %
17.11.2019 05:08 1,2 C 0,6 C 0,0 C 97 % 1012,2 hPa 0,0 l/m 0 min 0 min 0 W/m 6,4 km/h (2 Bft) 97,87 %
17.11.2019 05:10 1,2 C 0,0 C 0,0 C 97 % 1012,2 hPa 0,0 l/m 0 min 0 min 0 W/m 3,2 km/h (1 Bft) 97,87 %
17.11.2019 05:12 1,2 C 0,0 C 0,0 C 97 % 1012,2 hPa 0,0 l/m 0 min 0 min 0 W/m 6,4 km/h (2 Bft) 97,87 %
17.11.2019 05:14 1,2 C 0,0 C 0,0 C 97 % 1012,2 hPa 0,0 l/m 0 min 0 min 0 W/m 3,2 km/h (1 Bft) 97,87 %
17.11.2019 05:16 1,2 C 0,0 C 0,0 C 97 % 1012,2 hPa 0,0 l/m 0 min 0 min 0 W/m 6,4 km/h (2 Bft) 100,00 %
17.11.2019 05:18 1,2 C 0,0 C 0,0 C 97 % 1012,2 hPa 0,0 l/m 0 min 0 min 0 W/m 12,9 km/h (3 Bft) 100,00 %
17.11.2019 05:20 1,1 C 0,0 C 0,0 C 97 % 1012,2 hPa 0,0 l/m 0 min 0 min 0 W/m 3,2 km/h (1 Bft) 100,00 %
17.11.2019 05:22 1,1 C 0,0 C 0,0 C 97 % 1012,2 hPa 0,0 l/m 0 min 0 min 0 W/m 6,4 km/h (2 Bft) 100,00 %
17.11.2019 05:24 1,1 C 0,0 C 0,0 C 97 % 1012,2 hPa 0,0 l/m 0 min 0 min 0 W/m 6,4 km/h (2 Bft) 95,74 %
17.11.2019 05:26 1,1 C 0,0 C 0,0 C 97 % 1012,3 hPa 0,0 l/m 0 min 0 min 0 W/m 12,9 km/h (3 Bft) 97,87 %
17.11.2019 05:28 1,1 C 0,0 C 0,0 C 97 % 1012,2 hPa 0,0 l/m 0 min 0 min 0 W/m 0,0 km/h (0 Bft) 100,00 %
17.11.2019 05:30 1,1 C 0,0 C 0,0 C 97 % 1012,2 hPa 0,0 l/m 0 min 0 min 0 W/m 0,0 km/h (0 Bft) 100,00 %
17.11.2019 05:32 1,1 C 0,0 C -0,6 C 97 % 1012,1 hPa 0,0 l/m 0 min 0 min 0 W/m 3,2 km/h (1 Bft) 100,00 %
17.11.2019 05:34 1,1 C 0,0 C -0,6 C 97 % 1012,1 hPa 0,0 l/m 0 min 0 min 0 W/m 3,2 km/h (1 Bft) 100,00 %
17.11.2019 05:36 1,1 C 0,0 C -0,6 C 97 % 1012,1 hPa 0,0 l/m 0 min 0 min 0 W/m 0,0 km/h (0 Bft) 100,00 %
17.11.2019 05:38 1,1 C 0,0 C -0,6 C 97 % 1012,1 hPa 0,0 l/m 0 min 0 min 0 W/m 0,0 km/h (0 Bft) 100,00 %
17.11.2019 05:40 1,0 C 0,0 C -0,6 C 97 % 1012,2 hPa 0,0 l/m 0 min 0 min 0 W/m 0,0 km/h (0 Bft) 97,83 %
17.11.2019 05:42 1,0 C 0,0 C -0,6 C 97 % 1012,2 hPa 0,0 l/m 0 min 0 min 0 W/m 0,0 km/h (0 Bft) 100,00 %
17.11.2019 05:44 1,0 C 0,0 C -0,6 C 97 % 1012,2 hPa 0,0 l/m 0 min 0 min 0 W/m 0,0 km/h (0 Bft) 100,00 %
17.11.2019 05:46 1,0 C 0,0 C -0,6 C 97 % 1012,2 hPa 0,0 l/m 0 min 0 min 0 W/m 0,0 km/h (0 Bft) 100,00 %
17.11.2019 05:48 0,9 C -0,6 C -1,1 C 97 % 1012,2 hPa 0,0 l/m 0 min 0 min 0 W/m 0,0 km/h (0 Bft) 100,00 %
17.11.2019 05:50 0,9 C -0,6 C -1,1 C 97 % 1012,2 hPa 0,0 l/m 0 min 0 min 0 W/m 0,0 km/h (0 Bft) 97,87 %
17.11.2019 05:52 0,9 C -1,1 C -1,1 C 97 % 1012,2 hPa 0,0 l/m 0 min 0 min 0 W/m 0,0 km/h (0 Bft) 97,83 %
17.11.2019 05:54 0,9 C -1,1 C -1,7 C 97 % 1012,2 hPa 0,0 l/m 0 min 0 min 0 W/m 0,0 km/h (0 Bft) 100,00 %
17.11.2019 05:56 0,8 C -1,1 C -1,7 C 97 % 1012,2 hPa 0,0 l/m 0 min 0 min 0 W/m 0,0 km/h (0 Bft) 97,87 %
17.11.2019 05:58 0,8 C -1,1 C -1,7 C 97 % 1012,2 hPa 0,0 l/m 0 min 0 min 0 W/m 0,0 km/h (0 Bft) 100,00 %
17.11.2019 06:00 0,8 C -0,6 C -1,7 C 97 % 1012,2 hPa 0,0 l/m 0 min 0 min 0 W/m 0,0 km/h (0 Bft) 100,00 %
17.11.2019 06:02 0,7 C -0,6 C -1,7 C 97 % 1012,2 hPa 0,0 l/m 0 min 0 min 0 W/m 0,0 km/h (0 Bft) 97,87 %
17.11.2019 06:04 0,7 C -0,6 C -1,7 C 97 % 1012,3 hPa 0,0 l/m 0 min 0 min 0 W/m 0,0 km/h (0 Bft) 100,00 %
17.11.2019 06:08 0,6 C -0,6 C -1,1 C 97 % 1012,5 hPa 0,0 l/m 0 min 0 min 0 W/m 0,0 km/h (0 Bft) 98,94 %
17.11.2019 06:10 0,6 C -0,6 C -0,6 C 97 % 1012,6 hPa 0,0 l/m 0 min 0 min 0 W/m 0,0 km/h (0 Bft) 100,00 %
17.11.2019 06:12 0,6 C -0,6 C -0,6 C 97 % 1012,5 hPa 0,0 l/m 0 min 0 min 0 W/m 0,0 km/h (0 Bft) 100,00 %
17.11.2019 06:14 0,6 C 0,0 C -0,6 C 97 % 1012,6 hPa 0,0 l/m 0 min 0 min 0 W/m 0,0 km/h (0 Bft) 100,00 %
17.11.2019 06:16 0,6 C 0,0 C -0,6 C 97 % 1012,6 hPa 0,0 l/m 0 min 0 min 0 W/m 0,0 km/h (0 Bft) 100,00 %
17.11.2019 06:18 0,6 C 0,0 C -0,6 C 97 % 1012,7 hPa 0,0 l/m 0 min 0 min 0 W/m 6,4 km/h (2 Bft) 100,00 %
17.11.2019 06:20 0,6 C 0,0 C -0,6 C 97 % 1012,6 hPa 0,0 l/m 0 min 0 min 0 W/m 6,4 km/h (2 Bft) 100,00 %
17.11.2019 06:22 0,6 C 0,0 C -0,6 C 97 % 1012,6 hPa 0,0 l/m 0 min 0 min 0 W/m 6,4 km/h (2 Bft) 97,87 %
17.11.2019 06:24 0,6 C 0,0 C -0,6 C 97 % 1012,6 hPa 0,0 l/m 0 min 0 min 0 W/m 12,9 km/h (3 Bft) 100,00 %
17.11.2019 06:26 0,6 C 0,0 C -0,6 C 97 % 1012,6 hPa 0,0 l/m 0 min 0 min 0 W/m 3,2 km/h (1 Bft) 100,00 %
17.11.2019 06:28 0,6 C 0,0 C -0,6 C 97 % 1012,6 hPa 0,0 l/m 0 min 0 min 0 W/m 3,2 km/h (1 Bft) 95,92 %
17.11.2019 06:30 0,6 C 0,0 C -0,6 C 97 % 1012,7 hPa 0,0 l/m 0 min 0 min 0 W/m 6,4 km/h (2 Bft) 100,00 %
17.11.2019 06:32 0,6 C 0,0 C -0,6 C 97 % 1012,7 hPa 0,0 l/m 0 min 0 min 0 W/m 3,2 km/h (1 Bft) 93,62 %
17.11.2019 06:34 0,6 C 0,0 C -0,6 C 97 % 1012,6 hPa 0,0 l/m 0 min 0 min 0 W/m 3,2 km/h (1 Bft) 100,00 %
17.11.2019 06:36 0,6 C 0,0 C -0,6 C 97 % 1012,8 hPa 0,0 l/m 0 min 0 min 0 W/m 6,4 km/h (2 Bft) 97,87 %
17.11.2019 06:38 0,6 C 0,0 C -0,6 C 97 % 1012,8 hPa 0,0 l/m 0 min 0 min 0 W/m 0,0 km/h (0 Bft) 100,00 %
17.11.2019 06:40 0,6 C 0,0 C -0,6 C 97 % 1012,8 hPa 0,0 l/m 0 min 0 min 0 W/m 3,2 km/h (1 Bft) 95,74 %
17.11.2019 06:42 0,6 C 0,0 C -0,6 C 97 % 1012,8 hPa 0,0 l/m 0 min 0 min 0 W/m 3,2 km/h (1 Bft) 97,87 %
17.11.2019 06:44 0,6 C 0,0 C -0,6 C 97 % 1012,8 hPa 0,0 l/m 0 min 0 min 0 W/m 3,2 km/h (1 Bft) 97,87 %
17.11.2019 06:46 0,6 C 0,0 C -0,6 C 97 % 1012,8 hPa 0,0 l/m 0 min 0 min 0 W/m 0,0 km/h (0 Bft) 95,74 %
17.11.2019 06:48 0,6 C 0,0 C -0,6 C 97 % 1012,8 hPa 0,0 l/m 0 min 0 min 0 W/m 3,2 km/h (1 Bft) 97,87 %
17.11.2019 06:50 0,6 C 0,0 C -0,6 C 97 % 1012,8 hPa 0,0 l/m 0 min 0 min 0 W/m 0,0 km/h (0 Bft) 97,83 %
17.11.2019 06:52 0,6 C 0,0 C -0,6 C 97 % 1012,8 hPa 0,0 l/m 0 min 0 min 0 W/m 0,0 km/h (0 Bft) 95,74 %
17.11.2019 06:54 0,6 C 0,0 C -0,6 C 97 % 1012,9 hPa 0,0 l/m 0 min 0 min 0 W/m 0,0 km/h (0 Bft) 97,87 %
17.11.2019 06:56 0,6 C 0,0 C -0,6 C 97 % 1012,8 hPa 0,0 l/m 0 min 0 min 0 W/m 0,0 km/h (0 Bft) 97,87 %
17.11.2019 06:58 0,6 C 0,0 C -0,6 C 97 % 1012,9 hPa 0,0 l/m 0 min 0 min 0 W/m 0,0 km/h (0 Bft) 95,74 %
17.11.2019 07:00 0,6 C 0,0 C -0,6 C 97 % 1012,9 hPa 0,0 l/m 0 min 0 min 0 W/m 3,2 km/h (1 Bft) 97,87 %
17.11.2019 07:02 0,6 C 0,0 C -0,6 C 97 % 1012,9 hPa 0,0 l/m 0 min 0 min 0 W/m 6,4 km/h (2 Bft) 95,65 %
17.11.2019 07:04 0,6 C 0,0 C -0,6 C 97 % 1012,9 hPa 0,0 l/m 0 min 0 min 0 W/m 6,4 km/h (2 Bft) 97,87 %
17.11.2019 07:06 0,6 C 0,0 C -0,6 C 97 % 1012,9 hPa 0,0 l/m 0 min 0 min 0 W/m 3,2 km/h (1 Bft) 95,74 %
17.11.2019 07:08 0,6 C 0,0 C -0,6 C 97 % 1013,0 hPa 0,0 l/m 0 min 0 min 0 W/m 6,4 km/h (2 Bft) 95,74 %
17.11.2019 07:10 0,6 C 0,0 C -0,6 C 97 % 1012,9 hPa 0,0 l/m 0 min 0 min 0 W/m 6,4 km/h (2 Bft) 93,62 %
17.11.2019 07:12 0,6 C 0,0 C -0,6 C 97 % 1012,9 hPa 0,0 l/m 0 min 0 min 0 W/m 6,4 km/h (2 Bft) 95,74 %
17.11.2019 07:14 0,6 C 0,0 C -0,6 C 97 % 1012,9 hPa 0,0 l/m 0 min 0 min 0 W/m 6,4 km/h (2 Bft) 95,65 %
17.11.2019 07:16 0,6 C 0,0 C -0,6 C 97 % 1012,8 hPa 0,0 l/m 0 min 0 min 0 W/m 3,2 km/h (1 Bft) 95,74 %
17.11.2019 07:18 0,6 C 0,0 C -0,6 C 97 % 1012,8 hPa 0,0 l/m 0 min 0 min 0 W/m 3,2 km/h (1 Bft) 93,62 %
17.11.2019 07:20 0,6 C 0,0 C -0,6 C 97 % 1012,8 hPa 0,0 l/m 0 min 0 min 0 W/m 0,0 km/h (0 Bft) 95,74 %
17.11.2019 07:22 0,6 C 0,0 C -0,6 C 97 % 1012,8 hPa 0,0 l/m 0 min 0 min 0 W/m 3,2 km/h (1 Bft) 95,74 %
17.11.2019 07:24 0,6 C -0,6 C -0,6 C 97 % 1012,7 hPa 0,0 l/m 0 min 0 min 0 W/m 0,0 km/h (0 Bft) 95,65 %
17.11.2019 07:26 0,6 C -0,6 C -0,6 C 97 % 1012,7 hPa 0,0 l/m 0 min 0 min 0 W/m 0,0 km/h (0 Bft) 95,74 %
17.11.2019 07:28 0,6 C -0,6 C -1,1 C 97 % 1012,7 hPa 0,0 l/m 0 min 0 min 0 W/m 0,0 km/h (0 Bft) 95,74 %
17.11.2019 07:30 0,6 C -0,6 C -1,1 C 97 % 1012,8 hPa 0,0 l/m 0 min 0 min 0 W/m 0,0 km/h (0 Bft) 95,74 %
17.11.2019 07:32 0,6 C -1,1 C -1,1 C 97 % 1012,8 hPa 0,0 l/m 0 min 0 min 0 W/m 0,0 km/h (0 Bft) 93,62 %
17.11.2019 07:34 0,6 C -1,1 C -1,1 C 97 % 1012,8 hPa 0,0 l/m 0 min 0 min 0 W/m 0,0 km/h (0 Bft) 95,74 %
17.11.2019 07:36 0,6 C -1,1 C -1,7 C 97 % 1012,8 hPa 0,0 l/m 0 min 0 min 0 W/m 0,0 km/h (0 Bft) 89,13 %
17.11.2019 07:38 0,6 C -1,1 C -1,7 C 97 % 1012,7 hPa 0,0 l/m 0 min 0 min 0 W/m 0,0 km/h (0 Bft) 93,62 %
17.11.2019 07:40 0,6 C -1,1 C -1,7 C 97 % 1012,8 hPa 0,0 l/m 0 min 0 min 0 W/m 0,0 km/h (0 Bft) 95,74 %
17.11.2019 07:42 0,6 C -1,1 C -1,7 C 97 % 1012,7 hPa 0,0 l/m 0 min 0 min 0 W/m 0,0 km/h (0 Bft) 93,62 %
17.11.2019 07:44 0,5 C -1,1 C -1,7 C 97 % 1012,7 hPa 0,0 l/m 0 min 0 min 0 W/m 0,0 km/h (0 Bft) 95,74 %
17.11.2019 07:46 0,5 C -1,1 C -1,7 C 97 % 1012,7 hPa 0,0 l/m 0 min 0 min 0 W/m 0,0 km/h (0 Bft) 93,62 %
17.11.2019 07:48 0,4 C -1,7 C -1,7 C 97 % 1012,7 hPa 0,0 l/m 0 min 0 min 0 W/m 0,0 km/h (0 Bft) 93,48 %
17.11.2019 07:50 0,4 C -1,7 C -1,7 C 97 % 1012,7 hPa 0,0 l/m 0 min 0 min 0 W/m 0,0 km/h (0 Bft) 93,62 %
17.11.2019 07:52 0,4 C -1,7 C -1,7 C 97 % 1012,7 hPa 0,0 l/m 0 min 0 min 0 W/m 0,0 km/h (0 Bft) 93,62 %
17.11.2019 07:54 0,3 C -1,7 C -1,7 C 97 % 1012,6 hPa 0,0 l/m 0 min 0 min 0 W/m 0,0 km/h (0 Bft) 95,74 %
17.11.2019 07:56 0,3 C -1,7 C -1,7 C 97 % 1012,5 hPa 0,0 l/m 0 min 0 min 0 W/m 0,0 km/h (0 Bft) 93,62 %
17.11.2019 07:58 0,3 C -1,7 C -1,7 C 97 % 1012,5 hPa 0,0 l/m 0 min 0 min 0 W/m 0,0 km/h (0 Bft) 95,74 %
17.11.2019 08:00 0,3 C -1,7 C -1,7 C 97 % 1012,4 hPa 0,0 l/m 0 min 0 min 0 W/m 0,0 km/h (0 Bft) 93,48 %
17.11.2019 08:02 0,2 C -1,7 C -1,7 C 97 % 1012,4 hPa 0,0 l/m 0 min 0 min 0 W/m 0,0 km/h (0 Bft) 95,74 %
17.11.2019 08:04 0,2 C -1,7 C -1,7 C 97 % 1012,4 hPa 0,0 l/m 0 min 0 min 0 W/m 0,0 km/h (0 Bft) 93,62 %
17.11.2019 08:06 0,2 C -1,1 C -1,7 C 97 % 1012,5 hPa 0,0 l/m 0 min 0 min 4 W/m 0,0 km/h (0 Bft) 91,49 %
17.11.2019 08:08 0,1 C -1,1 C -1,7 C 97 % 1012,5 hPa 0,0 l/m 0 min 0 min 5 W/m 0,0 km/h (0 Bft) 95,74 %
17.11.2019 08:10 0,1 C -1,1 C -1,7 C 97 % 1012,6 hPa 0,0 l/m 0 min 0 min 7 W/m 0,0 km/h (0 Bft) 97,83 %
17.11.2019 08:12 0,1 C -1,1 C -1,7 C 97 % 1012,5 hPa 0,0 l/m 0 min 0 min 7 W/m 0,0 km/h (0 Bft) 95,74 %
17.11.2019 08:14 0,1 C -1,1 C -1,7 C 97 % 1012,5 hPa 0,0 l/m 0 min 0 min 7 W/m 0,0 km/h (0 Bft) 95,74 %
17.11.2019 08:16 0,1 C -1,1 C -1,7 C 97 % 1012,6 hPa 0,0 l/m 0 min 0 min 9 W/m 0,0 km/h (0 Bft) 97,87 %
17.11.2019 08:18 0,0 C -1,1 C -1,7 C 97 % 1012,6 hPa 0,0 l/m 0 min 0 min 10 W/m 0,0 km/h (0 Bft) 97,87 %
17.11.2019 08:20 0,0 C -1,1 C -1,7 C 97 % 1012,6 hPa 0,0 l/m 0 min 0 min 11 W/m 0,0 km/h (0 Bft) 97,87 %
17.11.2019 08:22 -0,1 C -1,1 C -1,7 C 97 % 1012,6 hPa 0,0 l/m 0 min 0 min 11 W/m 0,0 km/h (0 Bft) 97,83 %
17.11.2019 08:24 -0,1 C -1,1 C -1,7 C 97 % 1012,6 hPa 0,0 l/m 0 min 0 min 12 W/m 0,0 km/h (0 Bft) 100,00 %
17.11.2019 08:26 -0,1 C -1,1 C -1,7 C 97 % 1012,6 hPa 0,0 l/m 0 min 0 min 13 W/m 0,0 km/h (0 Bft) 100,00 %
17.11.2019 08:28 -0,1 C -1,1 C -1,7 C 97 % 1012,6 hPa 0,0 l/m 0 min 0 min 14 W/m 0,0 km/h (0 Bft) 95,74 %
17.11.2019 08:30 -0,1 C -1,1 C -1,7 C 97 % 1012,7 hPa 0,0 l/m 0 min 0 min 16 W/m 0,0 km/h (0 Bft) 100,00 %
17.11.2019 08:32 -0,1 C -1,1 C -1,7 C 97 % 1012,7 hPa 0,0 l/m 0 min 0 min 16 W/m 0,0 km/h (0 Bft) 100,00 %
17.11.2019 08:34 -0,1 C -1,1 C -1,1 C 97 % 1012,8 hPa 0,0 l/m 0 min 0 min 18 W/m 0,0 km/h (0 Bft) 100,00 %
17.11.2019 08:36 -0,2 C -1,1 C -1,1 C 97 % 1012,9 hPa 0,0 l/m 0 min 0 min 19 W/m 0,0 km/h (0 Bft) 100,00 %
17.11.2019 08:38 -0,2 C -1,1 C -1,1 C 97 % 1012,9 hPa 0,0 l/m 0 min 0 min 20 W/m 0,0 km/h (0 Bft) 97,87 %
17.11.2019 08:40 -0,2 C -1,1 C -1,1 C 97 % 1012,9 hPa 0,0 l/m 0 min 0 min 21 W/m 0,0 km/h (0 Bft) 100,00 %
17.11.2019 08:42 -0,2 C -1,1 C -1,1 C 97 % 1012,9 hPa 0,0 l/m 0 min 0 min 23 W/m 0,0 km/h (0 Bft) 100,00 %
17.11.2019 08:44 -0,2 C -1,1 C -1,1 C 97 % 1012,9 hPa 0,0 l/m 0 min 0 min 24 W/m 0,0 km/h (0 Bft) 97,87 %
17.11.2019 08:46 -0,2 C -1,1 C -1,1 C 97 % 1012,8 hPa 0,0 l/m 0 min 0 min 25 W/m 0,0 km/h (0 Bft) 95,65 %
17.11.2019 08:48 -0,2 C -1,1 C -1,1 C 97 % 1012,8 hPa 0,0 l/m 0 min 0 min 26 W/m 0,0 km/h (0 Bft) 100,00 %
17.11.2019 08:50 -0,2 C -1,1 C -1,1 C 97 % 1012,7 hPa 0,0 l/m 0 min 0 min 27 W/m 0,0 km/h (0 Bft) 100,00 %
17.11.2019 08:52 -0,2 C -0,6 C -1,1 C 97 % 1012,7 hPa 0,0 l/m 0 min 0 min 28 W/m 0,0 km/h (0 Bft) 97,87 %
17.11.2019 08:54 -0,2 C -0,6 C -0,6 C 97 % 1012,7 hPa 0,0 l/m 0 min 0 min 29 W/m 0,0 km/h (0 Bft) 95,74 %
17.11.2019 08:56 -0,2 C -0,6 C -0,6 C 97 % 1012,7 hPa 0,0 l/m 0 min 0 min 30 W/m 0,0 km/h (0 Bft) 97,83 %
17.11.2019 08:58 -0,2 C -0,6 C -0,6 C 97 % 1012,7 hPa 0,0 l/m 0 min 0 min 32 W/m 0,0 km/h (0 Bft) 97,87 %
17.11.2019 09:00 -0,2 C -0,6 C -0,6 C 97 % 1012,7 hPa 0,0 l/m 0 min 0 min 32 W/m 0,0 km/h (0 Bft) 95,74 %
17.11.2019 09:02 -0,2 C 0,0 C -0,6 C 97 % 1012,7 hPa 0,0 l/m 0 min 0 min 32 W/m 0,0 km/h (0 Bft) 97,87 %
17.11.2019 09:04 -0,2 C 0,0 C -0,6 C 97 % 1012,8 hPa 0,0 l/m 0 min 0 min 35 W/m 0,0 km/h (0 Bft) 97,87 %
17.11.2019 09:06 -0,2 C 0,0 C -0,6 C 97 % 1012,8 hPa 0,2 l/m 0 min 0 min 37 W/m 0,0 km/h (0 Bft) 93,62 %
17.11.2019 09:08 -0,2 C 0,0 C 0,0 C 97 % 1012,8 hPa 0,0 l/m 0 min 0 min 39 W/m 0,0 km/h (0 Bft) 97,83 %
17.11.2019 09:10 -0,1 C 0,0 C 0,0 C 97 % 1012,8 hPa 0,0 l/m 0 min 0 min 40 W/m 0,0 km/h (0 Bft) 97,87 %
17.11.2019 09:12 -0,1 C 0,0 C 0,0 C 97 % 1012,7 hPa 0,0 l/m 0 min 0 min 40 W/m 0,0 km/h (0 Bft) 95,74 %
17.11.2019 09:14 -0,1 C 0,0 C 0,0 C 97 % 1012,8 hPa 0,0 l/m 0 min 0 min 40 W/m 0,0 km/h (0 Bft) 95,74 %
17.11.2019 09:16 -0,1 C 0,6 C 0,0 C 97 % 1012,8 hPa 0,0 l/m 0 min 0 min 40 W/m 0,0 km/h (0 Bft) 97,87 %
17.11.2019 09:18 -0,1 C 0,6 C 0,0 C 97 % 1012,8 hPa 0,0 l/m 0 min 0 min 40 W/m 0,0 km/h (0 Bft) 95,74 %
17.11.2019 09:20 0,0 C 0,6 C 0,0 C 97 % 1012,8 hPa 0,0 l/m 0 min 0 min 40 W/m 0,0 km/h (0 Bft) 97,83 %
17.11.2019 09:22 0,0 C 0,6 C 0,0 C 97 % 1012,8 hPa 0,0 l/m 0 min 0 min 43 W/m 0,0 km/h (0 Bft) 95,74 %
17.11.2019 09:24 0,1 C 0,6 C 0,0 C 97 % 1012,8 hPa 0,0 l/m 0 min 0 min 45 W/m 0,0 km/h (0 Bft) 97,87 %
17.11.2019 09:26 0,1 C 0,6 C 0,0 C 97 % 1012,8 hPa 0,0 l/m 0 min 0 min 49 W/m 0,0 km/h (0 Bft) 97,87 %
17.11.2019 09:28 0,1 C 0,6 C 0,0 C 97 % 1012,7 hPa 0,0 l/m 0 min 0 min 53 W/m 0,0 km/h (0 Bft) 97,87 %
17.11.2019 09:30 0,1 C 1,1 C 0,6 C 97 % 1012,6 hPa 0,0 l/m 0 min 0 min 58 W/m 0,0 km/h (0 Bft) 97,87 %
17.11.2019 09:32 0,2 C 1,1 C 0,6 C 97 % 1012,7 hPa 0,0 l/m 0 min 0 min 62 W/m 0,0 km/h (0 Bft) 95,65 %
17.11.2019 09:34 0,2 C 1,1 C 0,6 C 97 % 1012,7 hPa 0,0 l/m 0 min 0 min 62 W/m 0,0 km/h (0 Bft) 97,87 %
17.11.2019 09:36 0,2 C 1,1 C 0,6 C 97 % 1012,8 hPa 0,0 l/m 0 min 0 min 61 W/m 0,0 km/h (0 Bft) 95,74 %
17.11.2019 09:38 0,3 C 1,1 C 0,6 C 97 % 1012,7 hPa 0,0 l/m 0 min 0 min 61 W/m 0,0 km/h (0 Bft) 95,74 %
17.11.2019 09:40 0,3 C 1,1 C 0,6 C 97 % 1012,8 hPa 0,0 l/m 0 min 0 min 62 W/m 0,0 km/h (0 Bft) 100,00 %
17.11.2019 09:42 0,3 C 1,1 C 0,6 C 97 % 1012,8 hPa 0,0 l/m 0 min 0 min 64 W/m 0,0 km/h (0 Bft) 100,00 %
17.11.2019 09:44 0,3 C 1,1 C 0,6 C 97 % 1012,7 hPa 0,0 l/m 0 min 0 min 65 W/m 0,0 km/h (0 Bft) 97,83 %
17.11.2019 09:46 0,4 C 1,1 C 0,6 C 97 % 1012,7 hPa 0,0 l/m 0 min 0 min 67 W/m 0,0 km/h (0 Bft) 100,00 %
17.11.2019 09:48 0,4 C 1,1 C 0,6 C 97 % 1012,7 hPa 0,0 l/m 0 min 0 min 69 W/m 0,0 km/h (0 Bft) 100,00 %
17.11.2019 09:50 0,4 C 1,1 C 0,6 C 97 % 1012,7 hPa 0,0 l/m 0 min 0 min 72 W/m 0,0 km/h (0 Bft) 100,00 %
17.11.2019 09:52 0,5 C 1,7 C 1,1 C 98 % 1012,7 hPa 0,0 l/m 0 min 0 min 77 W/m 0,0 km/h (0 Bft) 97,87 %
17.11.2019 09:54 0,6 C 1,7 C 1,1 C 98 % 1012,7 hPa 0,0 l/m 0 min 0 min 80 W/m 0,0 km/h (0 Bft) 100,00 %
17.11.2019 09:56 0,6 C 1,7 C 1,1 C 98 % 1012,7 hPa 0,0 l/m 0 min 0 min 83 W/m 0,0 km/h (0 Bft) 100,00 %
17.11.2019 09:58 0,6 C 1,7 C 1,1 C 98 % 1012,7 hPa 0,0 l/m 0 min 0 min 83 W/m 0,0 km/h (0 Bft) 100,00 %
17.11.2019 10:00 0,6 C 1,7 C 1,1 C 98 % 1012,8 hPa 0,0 l/m 0 min 0 min 84 W/m 0,0 km/h (0 Bft) 97,87 %
17.11.2019 10:02 0,7 C 1,7 C 1,1 C 98 % 1012,8 hPa 0,0 l/m 0 min 0 min 87 W/m 0,0 km/h (0 Bft) 100,00 %
17.11.2019 10:04 0,8 C 2,2 C 1,1 C 98 % 1012,8 hPa 0,0 l/m 0 min 0 min 89 W/m 0,0 km/h (0 Bft) 100,00 %
17.11.2019 10:06 0,8 C 2,2 C 1,1 C 98 % 1012,7 hPa 0,0 l/m 0 min 0 min 94 W/m 0,0 km/h (0 Bft) 95,65 %
17.11.2019 10:08 0,9 C 2,2 C 1,1 C 98 % 1012,7 hPa 0,0 l/m 0 min 0 min 97 W/m 0,0 km/h (0 Bft) 97,87 %
17.11.2019 10:10 0,9 C 2,2 C 1,1 C 98 % 1012,7 hPa 0,0 l/m 0 min 0 min 97 W/m 0,0 km/h (0 Bft) 97,87 %
17.11.2019 10:12 1,0 C 2,2 C 1,7 C 98 % 1012,7 hPa 0,0 l/m 0 min 0 min 98 W/m 0,0 km/h (0 Bft) 97,87 %
17.11.2019 10:14 1,1 C 2,2 C 1,7 C 98 % 1012,6 hPa 0,0 l/m 0 min 0 min 98 W/m 0,0 km/h (0 Bft) 97,87 %
17.11.2019 10:16 1,1 C 2,2 C 1,7 C 98 % 1012,6 hPa 0,0 l/m 0 min 0 min 98 W/m 0,0 km/h (0 Bft) 97,87 %
17.11.2019 10:18 1,1 C 2,2 C 1,7 C 98 % 1012,6 hPa 0,0 l/m 0 min 0 min 96 W/m 0,0 km/h (0 Bft) 97,83 %
17.11.2019 10:20 1,2 C 2,2 C 1,7 C 98 % 1012,7 hPa 0,0 l/m 0 min 0 min 95 W/m 0,0 km/h (0 Bft) 93,62 %
17.11.2019 10:22 1,2 C 2,2 C 1,7 C 98 % 1012,7 hPa 0,0 l/m 0 min 0 min 97 W/m 0,0 km/h (0 Bft) 95,74 %
17.11.2019 10:24 1,3 C 2,2 C 1,7 C 98 % 1012,7 hPa 0,0 l/m 0 min 0 min 97 W/m 0,0 km/h (0 Bft) 95,74 %
17.11.2019 10:26 1,3 C 2,2 C 1,7 C 98 % 1012,8 hPa 0,0 l/m 0 min 0 min 98 W/m 0,0 km/h (0 Bft) 97,87 %
17.11.2019 10:28 1,4 C 2,2 C 1,7 C 98 % 1012,7 hPa 0,0 l/m 0 min 0 min 100 W/m 0,0 km/h (0 Bft) 97,87 %
17.11.2019 10:30 1,4 C 2,8 C 1,7 C 98 % 1012,7 hPa 0,0 l/m 0 min 0 min 103 W/m 0,0 km/h (0 Bft) 95,65 %
17.11.2019 10:32 1,4 C 2,8 C 1,7 C 98 % 1012,7 hPa 0,0 l/m 0 min 0 min 104 W/m 0,0 km/h (0 Bft) 97,87 %
17.11.2019 10:34 1,5 C 2,8 C 1,7 C 98 % 1012,7 hPa 0,0 l/m 0 min 0 min 105 W/m 0,0 km/h (0 Bft) 95,74 %
17.11.2019 10:36 1,5 C 2,8 C 1,7 C 98 % 1012,7 hPa 0,0 l/m 0 min 0 min 108 W/m 0,0 km/h (0 Bft) 97,87 %
17.11.2019 10:38 1,6 C 2,8 C 2,2 C 98 % 1012,7 hPa 0,0 l/m 0 min 0 min 111 W/m 0,0 km/h (0 Bft) 97,87 %
17.11.2019 10:40 1,6 C 3,3 C 2,2 C 98 % 1012,6 hPa 0,0 l/m 0 min 0 min 114 W/m 0,0 km/h (0 Bft) 97,87 %
17.11.2019 10:42 1,7 C 3,3 C 2,2 C 98 % 1012,6 hPa 0,0 l/m 0 min 0 min 116 W/m 0,0 km/h (0 Bft) 95,65 %
17.11.2019 10:44 1,7 C 3,3 C 2,2 C 98 % 1012,6 hPa 0,0 l/m 0 min 0 min 118 W/m 0,0 km/h (0 Bft) 95,74 %
17.11.2019 10:46 1,8 C 3,3 C 2,2 C 98 % 1012,5 hPa 0,0 l/m 0 min 0 min 118 W/m 0,0 km/h (0 Bft) 93,62 %
17.11.2019 10:48 1,8 C 3,3 C 2,2 C 98 % 1012,4 hPa 0,0 l/m 0 min 0 min 120 W/m 0,0 km/h (0 Bft) 97,87 %
17.11.2019 10:50 1,9 C 3,3 C 2,2 C 98 % 1012,5 hPa 0,0 l/m 0 min 0 min 121 W/m 0,0 km/h (0 Bft) 97,87 %
17.11.2019 10:52 1,9 C 3,3 C 2,2 C 98 % 1012,5 hPa 0,0 l/m 0 min 0 min 123 W/m 0,0 km/h (0 Bft) 93,62 %
17.11.2019 10:54 2,0 C 3,3 C 2,2 C 98 % 1012,5 hPa 0,0 l/m 0 min 0 min 123 W/m 0,0 km/h (0 Bft) 97,83 %
17.11.2019 10:56 2,1 C 3,3 C 2,2 C 98 % 1012,4 hPa 0,0 l/m 0 min 0 min 123 W/m 0,0 km/h (0 Bft) 95,74 %
17.11.2019 10:58 2,1 C 3,3 C 2,2 C 98 % 1012,4 hPa 0,0 l/m 0 min 0 min 125 W/m 0,0 km/h (0 Bft) 97,87 %
17.11.2019 11:00 2,1 C 3,3 C 2,2 C 98 % 1012,4 hPa 0,0 l/m 0 min 0 min 125 W/m 0,0 km/h (0 Bft) 97,87 %
17.11.2019 11:02 2,2 C 3,3 C 2,2 C 98 % 1012,4 hPa 0,0 l/m 0 min 0 min 127 W/m 0,0 km/h (0 Bft) 97,87 %
17.11.2019 11:04 2,2 C 3,3 C 2,2 C 98 % 1012,4 hPa 0,0 l/m 0 min 0 min 129 W/m 0,0 km/h (0 Bft) 97,83 %
17.11.2019 11:06 2,2 C 3,3 C 2,2 C 98 % 1012,3 hPa 0,0 l/m 0 min 0 min 127 W/m 0,0 km/h (0 Bft) 97,87 %
17.11.2019 11:08 2,2 C 3,9 C 2,2 C 98 % 1012,3 hPa 0,0 l/m 0 min 0 min 132 W/m 0,0 km/h (0 Bft) 97,87 %
17.11.2019 11:10 2,3 C 3,9 C 2,2 C 98 % 1012,3 hPa 0,0 l/m 0 min 0 min 138 W/m 0,0 km/h (0 Bft) 97,87 %
17.11.2019 11:12 2,3 C 3,9 C 2,2 C 98 % 1012,3 hPa 0,0 l/m 0 min 0 min 144 W/m 0,0 km/h (0 Bft) 97,87 %
17.11.2019 11:14 2,3 C 4,4 C 2,2 C 98 % 1012,3 hPa 0,0 l/m 0 min 0 min 150 W/m 0,0 km/h (0 Bft) 97,87 %
17.11.2019 11:16 2,4 C 4,4 C 2,8 C 98 % 1012,2 hPa 0,0 l/m 0 min 0 min 151 W/m 0,0 km/h (0 Bft) 97,83 %
17.11.2019 11:18 2,4 C 4,4 C 2,8 C 98 % 1012,1 hPa 0,0 l/m 0 min 0 min 150 W/m 0,0 km/h (0 Bft) 97,87 %
17.11.2019 11:20 2,5 C 4,4 C 2,8 C 98 % 1012,1 hPa 0,0 l/m 0 min 0 min 153 W/m 0,0 km/h (0 Bft) 97,87 %
17.11.2019 11:22 2,6 C 4,4 C 2,8 C 98 % 1012,0 hPa 0,0 l/m 2 min 0 min 161 W/m 0,0 km/h (0 Bft) 97,87 %
17.11.2019 11:24 2,7 C 5,0 C 2,8 C 98 % 1012,0 hPa 0,0 l/m 2 min 0 min 168 W/m 0,0 km/h (0 Bft) 97,87 %
17.11.2019 11:26 2,7 C 5,0 C 3,3 C 98 % 1012,0 hPa 0,0 l/m 2 min 0 min 178 W/m 0,0 km/h (0 Bft) 100,00 %
17.11.2019 11:28 2,8 C 5,0 C 3,3 C 98 % 1012,0 hPa 0,0 l/m 0 min 0 min 160 W/m 0,0 km/h (0 Bft) 100,00 %
17.11.2019 11:30 2,8 C 5,0 C 3,3 C 98 % 1012,0 hPa 0,0 l/m 2 min 0 min 171 W/m 0,0 km/h (0 Bft) 97,87 %
17.11.2019 11:32 2,9 C 5,6 C 3,3 C 98 % 1012,0 hPa 0,0 l/m 2 min 0 min 185 W/m 0,0 km/h (0 Bft) 95,74 %
17.11.2019 11:34 2,9 C 6,1 C 3,3 C 98 % 1012,0 hPa 0,0 l/m 2 min 0 min 204 W/m 0,0 km/h (0 Bft) 97,87 %
17.11.2019 11:36 3,0 C 6,7 C 3,3 C 98 % 1012,0 hPa 0,0 l/m 2 min 0 min 218 W/m 0,0 km/h (0 Bft) 100,00 %
17.11.2019 11:38 3,1 C 6,7 C 3,3 C 99 % 1011,9 hPa 0,0 l/m 2 min 0 min 220 W/m 0,0 km/h (0 Bft) 97,83 %
17.11.2019 11:40 3,2 C 6,7 C 3,3 C 99 % 1011,9 hPa 0,0 l/m 2 min 0 min 211 W/m 3,2 km/h (1 Bft) 97,87 %
17.11.2019 11:42 3,2 C 6,7 C 3,9 C 98 % 1011,8 hPa 0,0 l/m 2 min 0 min 203 W/m 0,0 km/h (0 Bft) 97,87 %
17.11.2019 11:44 3,3 C 6,7 C 3,9 C 98 % 1011,8 hPa 0,0 l/m 2 min 0 min 197 W/m 0,0 km/h (0 Bft) 95,74 %
17.11.2019 11:46 3,4 C 6,7 C 3,9 C 99 % 1011,8 hPa 0,0 l/m 2 min 0 min 188 W/m 0,0 km/h (0 Bft) 100,00 %
17.11.2019 11:48 3,5 C 6,7 C 3,9 C 99 % 1011,8 hPa 0,0 l/m 2 min 0 min 202 W/m 0,0 km/h (0 Bft) 97,87 %
17.11.2019 11:50 3,6 C 6,7 C 3,9 C 99 % 1011,7 hPa 0,0 l/m 2 min 0 min 179 W/m 0,0 km/h (0 Bft) 97,83 %
17.11.2019 11:52 3,7 C 6,7 C 3,9 C 99 % 1011,7 hPa 0,0 l/m 2 min 0 min 188 W/m 0,0 km/h (0 Bft) 95,74 %
17.11.2019 11:54 3,7 C 7,2 C 3,9 C 98 % 1011,6 hPa 0,0 l/m 2 min 0 min 201 W/m 3,2 km/h (1 Bft) 95,74 %
17.11.2019 11:56 3,8 C 7,2 C 3,9 C 99 % 1011,7 hPa 0,0 l/m 2 min 0 min 207 W/m 3,2 km/h (1 Bft) 97,87 %
17.11.2019 11:58 3,9 C 7,2 C 4,4 C 99 % 1011,6 hPa 0,0 l/m 2 min 0 min 192 W/m 0,0 km/h (0 Bft) 97,87 %
17.11.2019 12:00 3,9 C 7,2 C 4,4 C 99 % 1011,6 hPa 0,0 l/m 0 min 0 min 160 W/m 0,0 km/h (0 Bft) 95,74 %
17.11.2019 12:02 4,1 C 7,2 C 4,4 C 99 % 1011,6 hPa 0,0 l/m 0 min 0 min 158 W/m 0,0 km/h (0 Bft) 93,48 %
17.11.2019 12:04 4,1 C 6,7 C 4,4 C 99 % 1011,7 hPa 0,0 l/m 0 min 0 min 164 W/m 0,0 km/h (0 Bft) 97,87 %
17.11.2019 12:06 4,2 C 6,7 C 4,4 C 99 % 1011,6 hPa 0,0 l/m 0 min 0 min 162 W/m 0,0 km/h (0 Bft) 97,87 %
17.11.2019 12:08 4,2 C 6,7 C 4,4 C 99 % 1011,6 hPa 0,0 l/m 0 min 0 min 156 W/m 0,0 km/h (0 Bft) 97,87 %
17.11.2019 12:10 4,3 C 6,7 C 4,4 C 99 % 1011,6 hPa 0,0 l/m 0 min 0 min 155 W/m 0,0 km/h (0 Bft) 95,74 %
17.11.2019 12:12 4,3 C 6,7 C 5,0 C 99 % 1011,6 hPa 0,0 l/m 0 min 0 min 168 W/m 0,0 km/h (0 Bft) 95,74 %
17.11.2019 12:14 4,4 C 6,7 C 5,0 C 99 % 1011,5 hPa 0,0 l/m 0 min 0 min 152 W/m 0,0 km/h (0 Bft) 95,65 %
17.11.2019 12:16 4,5 C 6,7 C 5,0 C 99 % 1011,5 hPa 0,0 l/m 0 min 0 min 155 W/m 0,0 km/h (0 Bft) 95,74 %
17.11.2019 12:18 4,6 C 7,2 C 5,0 C 99 % 1011,4 hPa 0,0 l/m 0 min 0 min 168 W/m 0,0 km/h (0 Bft) 97,87 %
17.11.2019 12:20 4,6 C 7,2 C 5,0 C 99 % 1011,3 hPa 0,0 l/m 2 min 0 min 174 W/m 0,0 km/h (0 Bft) 93,62 %
17.11.2019 12:22 4,7 C 7,2 C 5,0 C 99 % 1011,3 hPa 0,0 l/m 2 min 0 min 189 W/m 3,2 km/h (1 Bft) 95,74 %
17.11.2019 12:24 4,7 C 7,8 C 5,0 C 99 % 1011,3 hPa 0,0 l/m 2 min 0 min 200 W/m 0,0 km/h (0 Bft) 95,74 %
17.11.2019 12:26 4,8 C 7,8 C 5,0 C 99 % 1011,3 hPa 0,0 l/m 2 min 0 min 193 W/m 0,0 km/h (0 Bft) 93,48 %
17.11.2019 12:28 4,8 C 7,8 C 5,0 C 99 % 1011,3 hPa 0,0 l/m 2 min 0 min 186 W/m 0,0 km/h (0 Bft) 95,74 %
17.11.2019 12:30 4,9 C 8,3 C 5,0 C 99 % 1011,3 hPa 0,0 l/m 2 min 0 min 195 W/m 0,0 km/h (0 Bft) 95,74 %
17.11.2019 12:32 4,9 C 8,3 C 5,0 C 99 % 1011,2 hPa 0,0 l/m 2 min 0 min 207 W/m 0,0 km/h (0 Bft) 91,49 %
17.11.2019 12:34 5,0 C 7,8 C 5,0 C 99 % 1011,2 hPa 0,0 l/m 2 min 0 min 202 W/m 3,2 km/h (1 Bft) 95,74 %
17.11.2019 12:36 5,1 C 7,8 C 5,0 C 98 % 1011,2 hPa 0,0 l/m 2 min 0 min 195 W/m 3,2 km/h (1 Bft) 95,74 %
17.11.2019 12:38 5,1 C 7,8 C 5,6 C 99 % 1011,1 hPa 0,0 l/m 2 min 0 min 183 W/m 0,0 km/h (0 Bft) 95,65 %
17.11.2019 12:40 5,2 C 7,8 C 5,6 C 99 % 1011,1 hPa 0,0 l/m 2 min 0 min 189 W/m 0,0 km/h (0 Bft) 95,74 %
17.11.2019 12:42 5,2 C 7,8 C 5,6 C 99 % 1011,1 hPa 0,0 l/m 2 min 0 min 176 W/m 3,2 km/h (1 Bft) 93,62 %
17.11.2019 12:44 5,3 C 7,2 C 5,6 C 98 % 1011,1 hPa 0,0 l/m 2 min 0 min 171 W/m 0,0 km/h (0 Bft) 97,87 %
17.11.2019 12:46 5,3 C 7,2 C 5,6 C 98 % 1011,1 hPa 0,0 l/m 2 min 0 min 171 W/m 3,2 km/h (1 Bft) 91,49 %
17.11.2019 12:48 5,4 C 7,2 C 5,6 C 98 % 1011,1 hPa 0,0 l/m 2 min 0 min 168 W/m 0,0 km/h (0 Bft) 97,87 %
17.11.2019 12:50 5,4 C 7,2 C 5,6 C 98 % 1011,1 hPa 0,0 l/m 0 min 0 min 160 W/m 0,0 km/h (0 Bft) 95,65 %
17.11.2019 12:52 5,5 C 7,2 C 5,6 C 98 % 1011,1 hPa 0,0 l/m 0 min 0 min 151 W/m 0,0 km/h (0 Bft) 95,74 %
17.11.2019 12:54 5,6 C 7,2 C 5,6 C 98 % 1011,1 hPa 0,0 l/m 0 min 0 min 144 W/m 0,0 km/h (0 Bft) 97,87 %
17.11.2019 12:56 5,6 C 7,2 C 5,6 C 98 % 1011,2 hPa 0,0 l/m 0 min 0 min 140 W/m 3,2 km/h (1 Bft) 95,74 %
17.11.2019 12:58 5,6 C 7,2 C 5,6 C 98 % 1011,2 hPa 0,0 l/m 0 min 0 min 144 W/m 0,0 km/h (0 Bft) 93,62 %
17.11.2019 13:00 5,7 C 7,2 C 5,6 C 98 % 1011,1 hPa 0,0 l/m 0 min 0 min 147 W/m 3,2 km/h (1 Bft) 95,65 %
17.11.2019 13:02 5,7 C 7,2 C 5,6 C 98 % 1011,1 hPa 0,0 l/m 0 min 0 min 143 W/m 0,0 km/h (0 Bft) 93,62 %
17.11.2019 13:04 5,7 C 7,2 C 5,6 C 98 % 1011,1 hPa 0,0 l/m 0 min 0 min 139 W/m 0,0 km/h (0 Bft) 97,87 %
17.11.2019 13:06 5,8 C 7,2 C 5,6 C 97 % 1011,2 hPa 0,0 l/m 0 min 0 min 133 W/m 0,0 km/h (0 Bft) 97,87 %
17.11.2019 13:08 5,8 C 7,2 C 5,6 C 97 % 1011,1 hPa 0,0 l/m 0 min 0 min 126 W/m 0,0 km/h (0 Bft) 97,87 %
17.11.2019 13:10 5,8 C 6,7 C 5,6 C 97 % 1011,1 hPa 0,0 l/m 0 min 0 min 120 W/m 3,2 km/h (1 Bft) 97,87 %
17.11.2019 13:12 5,8 C 6,7 C 5,6 C 97 % 1011,0 hPa 0,0 l/m 0 min 0 min 116 W/m 0,0 km/h (0 Bft) 97,83 %
17.11.2019 13:14 5,9 C 6,7 C 5,6 C 97 % 1011,0 hPa 0,0 l/m 0 min 0 min 110 W/m 0,0 km/h (0 Bft) 97,87 %
17.11.2019 13:16 5,9 C 6,7 C 5,6 C 97 % 1010,9 hPa 0,0 l/m 0 min 0 min 106 W/m 0,0 km/h (0 Bft) 97,87 %
17.11.2019 13:18 5,9 C 6,7 C 5,6 C 97 % 1010,9 hPa 0,0 l/m 0 min 0 min 105 W/m 3,2 km/h (1 Bft) 97,87 %
17.11.2019 13:20 6,0 C 6,7 C 5,6 C 97 % 1010,8 hPa 0,0 l/m 0 min 0 min 103 W/m 0,0 km/h (0 Bft) 95,74 %
17.11.2019 13:22 6,0 C 6,7 C 5,6 C 96 % 1010,8 hPa 0,0 l/m 0 min 0 min 99 W/m 0,0 km/h (0 Bft) 97,87 %
17.11.2019 13:24 6,1 C 6,7 C 5,6 C 96 % 1010,8 hPa 0,0 l/m 0 min 0 min 95 W/m 0,0 km/h (0 Bft) 97,83 %
17.11.2019 13:26 6,1 C 6,7 C 5,6 C 96 % 1010,8 hPa 0,0 l/m 0 min 0 min 89 W/m 0,0 km/h (0 Bft) 95,74 %
17.11.2019 13:28 6,1 C 6,7 C 5,6 C 96 % 1010,8 hPa 0,0 l/m 0 min 0 min 85 W/m 3,2 km/h (1 Bft) 95,74 %
17.11.2019 13:30 6,1 C 6,7 C 5,6 C 96 % 1010,8 hPa 0,0 l/m 0 min 0 min 84 W/m 3,2 km/h (1 Bft) 95,74 %
17.11.2019 13:32 6,1 C 6,1 C 5,6 C 96 % 1010,8 hPa 0,0 l/m 0 min 0 min 85 W/m 3,2 km/h (1 Bft) 95,74 %
17.11.2019 13:34 6,1 C 6,1 C 5,6 C 95 % 1010,8 hPa 0,0 l/m 0 min 0 min 86 W/m 0,0 km/h (0 Bft) 100,00 %
17.11.2019 13:36 6,1 C 6,1 C 5,6 C 95 % 1010,7 hPa 0,0 l/m 0 min 0 min 85 W/m 3,2 km/h (1 Bft) 100,00 %
17.11.2019 13:38 6,1 C 6,1 C 5,6 C 95 % 1010,8 hPa 0,0 l/m 0 min 0 min 84 W/m 12,9 km/h (3 Bft) 100,00 %
17.11.2019 13:40 6,1 C 6,1 C 5,6 C 94 % 1010,8 hPa 0,0 l/m 0 min 0 min 85 W/m 3,2 km/h (1 Bft) 97,87 %
17.11.2019 13:42 6,1 C 6,1 C 5,6 C 94 % 1010,8 hPa 0,0 l/m 0 min 0 min 81 W/m 3,2 km/h (1 Bft) 97,87 %
17.11.2019 13:44 6,1 C 6,1 C 5,6 C 94 % 1010,9 hPa 0,0 l/m 0 min 0 min 77 W/m 0,0 km/h (0 Bft) 100,00 %
17.11.2019 13:46 6,1 C 6,1 C 5,6 C 94 % 1010,9 hPa 0,0 l/m 0 min 0 min 77 W/m 0,0 km/h (0 Bft) 100,00 %
17.11.2019 13:48 6,1 C 6,1 C 5,6 C 94 % 1010,9 hPa 0,0 l/m 0 min 0 min 76 W/m 0,0 km/h (0 Bft) 100,00 %
17.11.2019 13:50 6,1 C 6,1 C 5,6 C 93 % 1010,9 hPa 0,0 l/m 0 min 0 min 72 W/m 0,0 km/h (0 Bft) 100,00 %
17.11.2019 13:52 6,1 C 6,1 C 5,6 C 93 % 1010,9 hPa 0,0 l/m 0 min 0 min 70 W/m 0,0 km/h (0 Bft) 100,00 %
17.11.2019 13:54 6,1 C 6,1 C 5,0 C 93 % 1011,0 hPa 0,0 l/m 0 min 0 min 67 W/m 3,2 km/h (1 Bft) 95,74 %
17.11.2019 13:56 6,1 C 6,1 C 5,0 C 93 % 1011,1 hPa 0,0 l/m 0 min 0 min 63 W/m 0,0 km/h (0 Bft) 100,00 %
17.11.2019 13:58 6,1 C 6,1 C 5,0 C 93 % 1011,1 hPa 0,0 l/m 0 min 0 min 63 W/m 0,0 km/h (0 Bft) 100,00 %
17.11.2019 14:00 6,1 C 6,1 C 5,0 C 93 % 1011,1 hPa 0,0 l/m 0 min 0 min 62 W/m 0,0 km/h (0 Bft) 100,00 %
17.11.2019 14:02 6,1 C 6,1 C 5,0 C 92 % 1011,2 hPa 0,0 l/m 0 min 0 min 60 W/m 0,0 km/h (0 Bft) 100,00 %
17.11.2019 14:04 6,1 C 6,1 C 5,0 C 92 % 1011,2 hPa 0,0 l/m 0 min 0 min 57 W/m 0,0 km/h (0 Bft) 100,00 %
17.11.2019 14:06 6,1 C 5,6 C 5,0 C 92 % 1011,2 hPa 0,0 l/m 0 min 0 min 56 W/m 0,0 km/h (0 Bft) 100,00 %
17.11.2019 14:08 6,1 C 5,6 C 5,0 C 92 % 1011,1 hPa 0,0 l/m 0 min 0 min 54 W/m 0,0 km/h (0 Bft) 100,00 %
17.11.2019 14:10 6,1 C 5,6 C 5,0 C 92 % 1011,1 hPa 0,0 l/m 0 min 0 min 53 W/m 0,0 km/h (0 Bft) 100,00 %
17.11.2019 14:12 6,1 C 5,6 C 5,0 C 92 % 1011,2 hPa 0,0 l/m 0 min 0 min 53 W/m 0,0 km/h (0 Bft) 100,00 %
17.11.2019 14:14 6,1 C 5,6 C 5,0 C 91 % 1011,2 hPa 0,0 l/m 0 min 0 min 53 W/m 0,0 km/h (0 Bft) 100,00 %
17.11.2019 14:16 6,1 C 5,6 C 5,0 C 91 % 1011,1 hPa 0,0 l/m 0 min 0 min 55 W/m 0,0 km/h (0 Bft) 97,87 %
17.11.2019 14:18 6,1 C 5,6 C 5,0 C 91 % 1011,0 hPa 0,0 l/m 0 min 0 min 57 W/m 0,0 km/h (0 Bft) 97,87 %
17.11.2019 14:20 6,0 C 5,6 C 5,0 C 91 % 1011,0 hPa 0,0 l/m 0 min 0 min 59 W/m 0,0 km/h (0 Bft) 97,87 %
17.11.2019 14:22 6,0 C 5,6 C 5,0 C 91 % 1011,0 hPa 0,0 l/m 0 min 0 min 61 W/m 0,0 km/h (0 Bft) 93,48 %
17.11.2019 14:24 6,0 C 5,6 C 5,0 C 91 % 1011,0 hPa 0,0 l/m 0 min 0 min 63 W/m 0,0 km/h (0 Bft) 97,87 %
17.11.2019 14:26 6,0 C 5,6 C 5,0 C 91 % 1011,0 hPa 0,0 l/m 0 min 0 min 66 W/m 0,0 km/h (0 Bft) 95,74 %
17.11.2019 14:28 6,0 C 5,6 C 5,0 C 90 % 1010,9 hPa 0,0 l/m 0 min 0 min 68 W/m 0,0 km/h (0 Bft) 97,87 %
17.11.2019 14:30 6,0 C 5,6 C 5,0 C 91 % 1010,9 hPa 0,0 l/m 0 min 0 min 70 W/m 0,0 km/h (0 Bft) 97,87 %
17.11.2019 14:32 6,0 C 6,1 C 5,0 C 90 % 1010,8 hPa 0,0 l/m 0 min 0 min 72 W/m 0,0 km/h (0 Bft) 97,87 %
17.11.2019 14:34 5,9 C 6,1 C 5,0 C 90 % 1010,8 hPa 0,0 l/m 0 min 0 min 74 W/m 0,0 km/h (0 Bft) 97,83 %
17.11.2019 14:36 5,9 C 6,1 C 5,0 C 90 % 1010,8 hPa 0,0 l/m 0 min 0 min 74 W/m 0,0 km/h (0 Bft) 97,87 %
17.11.2019 14:38 6,0 C 6,1 C 5,0 C 90 % 1010,7 hPa 0,0 l/m 0 min 0 min 74 W/m 0,0 km/h (0 Bft) 97,87 %
17.11.2019 14:40 5,9 C 6,1 C 5,0 C 90 % 1010,7 hPa 0,0 l/m 0 min 0 min 74 W/m 3,2 km/h (1 Bft) 95,74 %
17.11.2019 14:42 6,0 C 6,1 C 5,0 C 90 % 1010,7 hPa 0,0 l/m 0 min 0 min 71 W/m 3,2 km/h (1 Bft) 97,87 %
17.11.2019 14:44 5,9 C 6,1 C 5,0 C 90 % 1010,6 hPa 0,0 l/m 0 min 0 min 70 W/m 6,4 km/h (2 Bft) 95,74 %
17.11.2019 14:46 5,9 C 6,1 C 5,0 C 90 % 1010,6 hPa 0,0 l/m 0 min 0 min 68 W/m 0,0 km/h (0 Bft) 97,83 %
17.11.2019 14:48 5,9 C 6,1 C 5,0 C 90 % 1010,5 hPa 0,0 l/m 0 min 0 min 67 W/m 9,7 km/h (2 Bft) 97,87 %
17.11.2019 14:50 5,9 C 6,1 C 5,0 C 90 % 1010,5 hPa 0,0 l/m 0 min 0 min 67 W/m 3,2 km/h (1 Bft) 97,87 %
17.11.2019 14:52 6,0 C 6,1 C 5,0 C 90 % 1010,4 hPa 0,0 l/m 0 min 0 min 68 W/m 3,2 km/h (1 Bft) 97,87 %
17.11.2019 14:54 6,0 C 6,1 C 5,0 C 90 % 1010,3 hPa 0,0 l/m 0 min 0 min 66 W/m 3,2 km/h (1 Bft) 97,87 %
17.11.2019 14:56 6,0 C 6,1 C 5,0 C 90 % 1010,2 hPa 0,0 l/m 0 min 0 min 63 W/m 3,2 km/h (1 Bft) 97,83 %
17.11.2019 14:58 6,0 C 5,6 C 5,0 C 90 % 1010,2 hPa 0,0 l/m 0 min 0 min 60 W/m 0,0 km/h (0 Bft) 93,62 %
17.11.2019 15:00 6,0 C 5,6 C 5,0 C 90 % 1010,1 hPa 0,0 l/m 0 min 0 min 56 W/m 3,2 km/h (1 Bft) 100,00 %
17.11.2019 15:02 6,0 C 5,6 C 5,0 C 90 % 1010,1 hPa 0,0 l/m 0 min 0 min 54 W/m 6,4 km/h (2 Bft) 93,62 %
17.11.2019 15:04 6,0 C 5,6 C 5,0 C 90 % 1010,1 hPa 0,0 l/m 0 min 0 min 53 W/m 0,0 km/h (0 Bft) 97,87 %
17.11.2019 15:06 6,0 C 5,6 C 5,0 C 90 % 1010,1 hPa 0,0 l/m 0 min 0 min 52 W/m 6,4 km/h (2 Bft) 97,87 %
17.11.2019 15:08 6,0 C 5,6 C 5,0 C 90 % 1010,1 hPa 0,0 l/m 0 min 0 min 48 W/m 3,2 km/h (1 Bft) 97,83 %
17.11.2019 15:10 6,0 C 5,6 C 5,0 C 90 % 1010,1 hPa 0,0 l/m 0 min 0 min 44 W/m 3,2 km/h (1 Bft) 100,00 %
17.11.2019 15:12 6,0 C 5,6 C 5,0 C 90 % 1010,1 hPa 0,0 l/m 0 min 0 min 42 W/m 9,7 km/h (2 Bft) 95,74 %
17.11.2019 15:14 5,9 C 5,6 C 4,4 C 90 % 1010,1 hPa 0,0 l/m 0 min 0 min 42 W/m 3,2 km/h (1 Bft) 95,74 %
17.11.2019 15:16 5,9 C 5,0 C 4,4 C 90 % 1010,1 hPa 0,0 l/m 0 min 0 min 42 W/m 6,4 km/h (2 Bft) 95,74 %
17.11.2019 15:18 5,9 C 5,0 C 4,4 C 90 % 1010,0 hPa 0,0 l/m 0 min 0 min 41 W/m 3,2 km/h (1 Bft) 100,00 %
17.11.2019 15:20 5,9 C 5,0 C 4,4 C 90 % 1010,0 hPa 0,0 l/m 0 min 0 min 40 W/m 0,0 km/h (0 Bft) 97,83 %
17.11.2019 15:22 5,8 C 5,0 C 4,4 C 90 % 1010,0 hPa 0,0 l/m 0 min 0 min 40 W/m 3,2 km/h (1 Bft) 97,87 %
17.11.2019 15:24 5,8 C 5,0 C 4,4 C 90 % 1010,0 hPa 0,0 l/m 0 min 0 min 40 W/m 9,7 km/h (2 Bft) 97,87 %
17.11.2019 15:26 5,8 C 5,0 C 4,4 C 90 % 1010,0 hPa 0,0 l/m 0 min 0 min 40 W/m 0,0 km/h (0 Bft) 97,87 %
17.11.2019 15:28 5,8 C 5,0 C 4,4 C 90 % 1009,9 hPa 0,0 l/m 0 min 0 min 40 W/m 9,7 km/h (2 Bft) 97,87 %
17.11.2019 15:30 5,7 C 5,0 C 4,4 C 89 % 1010,0 hPa 0,0 l/m 0 min 0 min 38 W/m 6,4 km/h (2 Bft) 97,83 %
17.11.2019 15:32 5,7 C 5,0 C 4,4 C 89 % 1010,0 hPa 0,0 l/m 0 min 0 min 35 W/m 9,7 km/h (2 Bft) 97,87 %
17.11.2019 15:34 5,7 C 5,0 C 4,4 C 89 % 1009,9 hPa 0,0 l/m 0 min 0 min 36 W/m 3,2 km/h (1 Bft) 97,87 %
17.11.2019 15:36 5,6 C 5,0 C 4,4 C 89 % 1009,9 hPa 0,0 l/m 0 min 0 min 37 W/m 6,4 km/h (2 Bft) 97,87 %
17.11.2019 15:38 5,6 C 5,0 C 4,4 C 89 % 1009,9 hPa 0,0 l/m 0 min 0 min 36 W/m 3,2 km/h (1 Bft) 97,87 %
17.11.2019 15:40 5,6 C 5,0 C 4,4 C 89 % 1009,9 hPa 0,0 l/m 0 min 0 min 35 W/m 3,2 km/h (1 Bft) 97,87 %
17.11.2019 15:42 5,6 C 5,0 C 4,4 C 89 % 1010,0 hPa 0,0 l/m 0 min 0 min 35 W/m 3,2 km/h (1 Bft) 95,74 %
17.11.2019 15:44 5,5 C 5,0 C 4,4 C 89 % 1009,9 hPa 0,0 l/m 0 min 0 min 33 W/m 3,2 km/h (1 Bft) 95,65 %
17.11.2019 15:46 5,5 C 5,0 C 4,4 C 89 % 1009,9 hPa 0,0 l/m 0 min 0 min 31 W/m 6,4 km/h (2 Bft) 95,74 %
17.11.2019 15:48 5,5 C 4,4 C 4,4 C 89 % 1009,9 hPa 0,0 l/m 0 min 0 min 30 W/m 0,0 km/h (0 Bft) 93,62 %
17.11.2019 15:50 5,4 C 4,4 C 4,4 C 89 % 1010,0 hPa 0,0 l/m 0 min 0 min 30 W/m 6,4 km/h (2 Bft) 93,62 %
17.11.2019 15:52 5,4 C 4,4 C 4,4 C 89 % 1010,0 hPa 0,0 l/m 0 min 0 min 28 W/m 0,0 km/h (0 Bft) 95,74 %
17.11.2019 15:54 5,4 C 4,4 C 4,4 C 89 % 1010,0 hPa 0,0 l/m 0 min 0 min 29 W/m 0,0 km/h (0 Bft) 95,65 %
17.11.2019 15:56 5,4 C 4,4 C 3,9 C 89 % 1009,9 hPa 0,0 l/m 0 min 0 min 30 W/m 3,2 km/h (1 Bft) 93,62 %
17.11.2019 15:58 5,4 C 4,4 C 3,9 C 89 % 1009,9 hPa 0,0 l/m 0 min 0 min 29 W/m 3,2 km/h (1 Bft) 95,74 %
17.11.2019 16:00 5,3 C 4,4 C 3,9 C 89 % 1009,8 hPa 0,0 l/m 0 min 0 min 26 W/m 9,7 km/h (2 Bft) 95,74 %
17.11.2019 16:02 5,3 C 4,4 C 3,9 C 89 % 1009,8 hPa 0,0 l/m 0 min 0 min 25 W/m 3,2 km/h (1 Bft) 93,62 %
17.11.2019 16:04 5,3 C 4,4 C 3,9 C 89 % 1009,8 hPa 0,0 l/m 0 min 0 min 21 W/m 6,4 km/h (2 Bft) 95,74 %
17.11.2019 16:06 5,3 C 4,4 C 3,9 C 89 % 1009,8 hPa 0,0 l/m 0 min 0 min 19 W/m 6,4 km/h (2 Bft) 91,30 %
17.11.2019 16:08 5,3 C 4,4 C 3,9 C 89 % 1009,8 hPa 0,0 l/m 0 min 0 min 15 W/m 0,0 km/h (0 Bft) 93,62 %
17.11.2019 16:10 5,2 C 4,4 C 3,9 C 89 % 1009,8 hPa 0,0 l/m 0 min 0 min 13 W/m 0,0 km/h (0 Bft) 97,87 %
17.11.2019 16:12 5,2 C 4,4 C 3,9 C 89 % 1009,8 hPa 0,0 l/m 0 min 0 min 11 W/m 3,2 km/h (1 Bft) 97,87 %
17.11.2019 16:14 5,2 C 4,4 C 3,9 C 89 % 1009,8 hPa 0,0 l/m 0 min 0 min 10 W/m 3,2 km/h (1 Bft) 97,87 %
17.11.2019 16:16 5,2 C 4,4 C 3,9 C 89 % 1009,8 hPa 0,0 l/m 0 min 0 min 8 W/m 0,0 km/h (0 Bft) 97,87 %
17.11.2019 16:18 5,2 C 4,4 C 3,9 C 89 % 1009,7 hPa 0,0 l/m 0 min 0 min 7 W/m 3,2 km/h (1 Bft) 97,83 %
17.11.2019 16:20 5,2 C 4,4 C 3,9 C 89 % 1009,7 hPa 0,0 l/m 0 min 0 min 6 W/m 0,0 km/h (0 Bft) 97,87 %
17.11.2019 16:22 5,2 C 4,4 C 3,9 C 90 % 1009,8 hPa 0,0 l/m 0 min 0 min 5 W/m 3,2 km/h (1 Bft) 97,87 %
17.11.2019 16:24 5,1 C 4,4 C 3,9 C 90 % 1009,8 hPa 0,0 l/m 0 min 0 min 5 W/m 6,4 km/h (2 Bft) 97,87 %
17.11.2019 16:26 5,1 C 4,4 C 3,9 C 90 % 1009,7 hPa 0,0 l/m 0 min 0 min 0 W/m 0,0 km/h (0 Bft) 97,87 %
17.11.2019 16:28 5,1 C 4,4 C 3,9 C 90 % 1009,6 hPa 0,0 l/m 0 min 0 min 0 W/m 9,7 km/h (2 Bft) 95,74 %
17.11.2019 16:30 5,1 C 3,9 C 3,9 C 90 % 1009,5 hPa 0,0 l/m 0 min 0 min 0 W/m 3,2 km/h (1 Bft) 100,00 %
17.11.2019 16:32 5,1 C 3,9 C 3,9 C 90 % 1009,6 hPa 0,0 l/m 0 min 0 min 0 W/m 3,2 km/h (1 Bft) 97,87 %
17.11.2019 16:34 5,1 C 3,9 C 3,9 C 90 % 1009,6 hPa 0,0 l/m 0 min 0 min 0 W/m 0,0 km/h (0 Bft) 97,87 %
17.11.2019 16:36 5,1 C 3,9 C 3,9 C 90 % 1009,7 hPa 0,0 l/m 0 min 0 min 0 W/m 0,0 km/h (0 Bft) 97,87 %
17.11.2019 16:38 5,0 C 3,9 C 3,9 C 90 % 1009,7 hPa 0,0 l/m 0 min 0 min 0 W/m 3,2 km/h (1 Bft) 97,87 %
17.11.2019 16:40 5,0 C 3,9 C 3,9 C 90 % 1009,7 hPa 0,0 l/m 0 min 0 min 0 W/m 6,4 km/h (2 Bft) 97,83 %
17.11.2019 16:42 5,0 C 3,9 C 3,9 C 90 % 1009,7 hPa 0,0 l/m 0 min 0 min 0 W/m 3,2 km/h (1 Bft) 100,00 %
17.11.2019 16:44 5,0 C 3,9 C 3,9 C 90 % 1009,7 hPa 0,0 l/m 0 min 0 min 0 W/m 6,4 km/h (2 Bft) 100,00 %
17.11.2019 16:46 4,9 C 3,9 C 3,9 C 90 % 1009,8 hPa 0,0 l/m 0 min 0 min 0 W/m 0,0 km/h (0 Bft) 97,87 %
17.11.2019 16:48 4,9 C 3,9 C 3,9 C 90 % 1009,8 hPa 0,0 l/m 0 min 0 min 0 W/m 6,4 km/h (2 Bft) 100,00 %
17.11.2019 16:50 4,9 C 3,9 C 3,9 C 90 % 1009,8 hPa 0,0 l/m 0 min 0 min 0 W/m 0,0 km/h (0 Bft) 100,00 %
17.11.2019 16:52 4,9 C 3,9 C 3,9 C 91 % 1009,7 hPa 0,0 l/m 0 min 0 min 0 W/m 0,0 km/h (0 Bft) 100,00 %
17.11.2019 16:54 4,9 C 3,9 C 3,9 C 91 % 1009,8 hPa 0,0 l/m 0 min 0 min 0 W/m 3,2 km/h (1 Bft) 100,00 %
17.11.2019 16:56 4,9 C 3,9 C 3,9 C 91 % 1009,7 hPa 0,0 l/m 0 min 0 min 0 W/m 3,2 km/h (1 Bft) 95,74 %
17.11.2019 16:58 4,9 C 3,9 C 3,9 C 91 % 1009,7 hPa 0,0 l/m 0 min 0 min 0 W/m 3,2 km/h (1 Bft) 97,87 %
17.11.2019 17:00 4,9 C 3,9 C 3,9 C 91 % 1009,8 hPa 0,0 l/m 0 min 0 min 0 W/m 3,2 km/h (1 Bft) 97,87 %
17.11.2019 17:02 4,9 C 3,9 C 3,9 C 91 % 1009,8 hPa 0,0 l/m 0 min 0 min 0 W/m 3,2 km/h (1 Bft) 95,74 %
17.11.2019 17:04 4,9 C 3,9 C 3,9 C 91 % 1009,8 hPa 0,0 l/m 0 min 0 min 0 W/m 6,4 km/h (2 Bft) 95,65 %
17.11.2019 17:06 4,8 C 3,9 C 3,9 C 91 % 1009,8 hPa 0,0 l/m 0 min 0 min 0 W/m 0,0 km/h (0 Bft) 97,87 %
17.11.2019 17:08 4,8 C 3,9 C 3,9 C 91 % 1009,8 hPa 0,0 l/m 0 min 0 min 0 W/m 9,7 km/h (2 Bft) 97,87 %
17.11.2019 17:10 4,8 C 3,9 C 3,9 C 91 % 1009,7 hPa 0,0 l/m 0 min 0 min 0 W/m 16,1 km/h (3 Bft) 97,87 %
17.11.2019 17:12 4,8 C 3,9 C 3,9 C 91 % 1009,7 hPa 0,0 l/m 0 min 0 min 0 W/m 0,0 km/h (0 Bft) 95,74 %
17.11.2019 17:14 4,8 C 3,9 C 3,9 C 91 % 1009,7 hPa 0,0 l/m 0 min 0 min 0 W/m 6,4 km/h (2 Bft) 97,87 %
17.11.2019 17:16 4,8 C 3,9 C 3,9 C 91 % 1009,7 hPa 0,0 l/m 0 min 0 min 0 W/m 3,2 km/h (1 Bft) 97,83 %
17.11.2019 17:18 4,8 C 3,9 C 3,9 C 91 % 1009,8 hPa 0,0 l/m 0 min 0 min 0 W/m 3,2 km/h (1 Bft) 97,87 %
17.11.2019 17:20 4,8 C 3,9 C 3,9 C 91 % 1009,8 hPa 0,0 l/m 0 min 0 min 0 W/m 9,7 km/h (2 Bft) 95,74 %
17.11.2019 17:22 4,8 C 3,9 C 3,9 C 91 % 1009,8 hPa 0,0 l/m 0 min 0 min 0 W/m 9,7 km/h (2 Bft) 97,87 %
17.11.2019 17:24 4,8 C 3,9 C 3,9 C 91 % 1009,8 hPa 0,0 l/m 0 min 0 min 0 W/m 3,2 km/h (1 Bft) 97,87 %
17.11.2019 17:26 4,8 C 3,9 C 3,9 C 91 % 1009,8 hPa 0,0 l/m 0 min 0 min 0 W/m 6,4 km/h (2 Bft) 97,83 %
17.11.2019 17:28 4,8 C 3,9 C 3,9 C 91 % 1009,7 hPa 0,0 l/m 0 min 0 min 0 W/m 3,2 km/h (1 Bft) 97,87 %
17.11.2019 17:30 4,8 C 3,9 C 3,9 C 91 % 1009,7 hPa 0,0 l/m 0 min 0 min 0 W/m 6,4 km/h (2 Bft) 97,87 %
17.11.2019 17:32 4,8 C 3,9 C 3,9 C 92 % 1009,6 hPa 0,0 l/m 0 min 0 min 0 W/m 3,2 km/h (1 Bft) 97,87 %
17.11.2019 17:34 4,8 C 3,9 C 3,9 C 92 % 1009,6 hPa 0,0 l/m 0 min 0 min 0 W/m 6,4 km/h (2 Bft) 97,87 %
17.11.2019 17:36 4,8 C 3,9 C 3,9 C 92 % 1009,6 hPa 0,0 l/m 0 min 0 min 0 W/m 3,2 km/h (1 Bft) 97,87 %
17.11.2019 17:38 4,8 C 3,9 C 3,9 C 92 % 1009,7 hPa 0,0 l/m 0 min 0 min 0 W/m 3,2 km/h (1 Bft) 95,65 %
17.11.2019 17:40 4,8 C 3,9 C 3,9 C 92 % 1009,5 hPa 0,0 l/m 0 min 0 min 0 W/m 3,2 km/h (1 Bft) 97,87 %
17.11.2019 17:42 4,8 C 3,9 C 3,9 C 92 % 1009,5 hPa 0,0 l/m 0 min 0 min 0 W/m 6,4 km/h (2 Bft) 93,62 %
17.11.2019 17:44 4,8 C 3,9 C 3,9 C 92 % 1009,5 hPa 0,0 l/m 0 min 0 min 0 W/m 9,7 km/h (2 Bft) 97,87 %
17.11.2019 17:46 4,7 C 3,9 C 3,9 C 92 % 1009,5 hPa 0,0 l/m 0 min 0 min 0 W/m 16,1 km/h (3 Bft) 100,00 %
17.11.2019 17:48 4,7 C 3,9 C 3,9 C 92 % 1009,4 hPa 0,0 l/m 0 min 0 min 0 W/m 6,4 km/h (2 Bft) 93,62 %
17.11.2019 17:50 4,8 C 3,9 C 3,9 C 92 % 1009,4 hPa 0,0 l/m 0 min 0 min 0 W/m 3,2 km/h (1 Bft) 97,83 %
17.11.2019 17:52 4,7 C 3,9 C 3,9 C 92 % 1009,3 hPa 0,0 l/m 0 min 0 min 0 W/m 9,7 km/h (2 Bft) 97,87 %
17.11.2019 17:54 4,8 C 3,9 C 3,9 C 92 % 1009,4 hPa 0,0 l/m 0 min 0 min 0 W/m 9,7 km/h (2 Bft) 100,00 %
17.11.2019 17:56 4,7 C 3,9 C 3,9 C 92 % 1009,3 hPa 0,0 l/m 0 min 0 min 0 W/m 9,7 km/h (2 Bft) 97,87 %
17.11.2019 17:58 4,7 C 3,9 C 3,9 C 92 % 1009,2 hPa 0,0 l/m 0 min 0 min 0 W/m 6,4 km/h (2 Bft) 97,87 %
17.11.2019 18:00 4,7 C 3,9 C 3,9 C 92 % 1009,3 hPa 0,0 l/m 0 min 0 min 0 W/m 3,2 km/h (1 Bft) 95,74 %
17.11.2019 18:02 4,8 C 3,9 C 3,9 C 92 % 1009,3 hPa 0,0 l/m 0 min 0 min 0 W/m 3,2 km/h (1 Bft) 97,83 %
17.11.2019 18:04 4,7 C 3,9 C 3,9 C 92 % 1009,3 hPa 0,0 l/m 0 min 0 min 0 W/m 3,2 km/h (1 Bft) 95,74 %
17.11.2019 18:08 4,7 C 3,9 C 3,9 C 92 % 1009,3 hPa 0,0 l/m 0 min 0 min 0 W/m 3,2 km/h (1 Bft) 97,87 %
17.11.2019 18:10 4,7 C 3,9 C 3,3 C 92 % 1009,2 hPa 0,0 l/m 0 min 0 min 0 W/m 3,2 km/h (1 Bft) 97,87 %
17.11.2019 18:12 4,7 C 3,9 C 3,3 C 92 % 1009,2 hPa 0,0 l/m 0 min 0 min 0 W/m 3,2 km/h (1 Bft) 97,87 %
17.11.2019 18:14 4,7 C 3,9 C 3,3 C 92 % 1009,1 hPa 0,0 l/m 0 min 0 min 0 W/m 6,4 km/h (2 Bft) 97,83 %
17.11.2019 18:16 4,7 C 3,9 C 3,3 C 92 % 1009,1 hPa 0,0 l/m 0 min 0 min 0 W/m 6,4 km/h (2 Bft) 97,87 %
17.11.2019 18:18 4,7 C 3,9 C 3,3 C 92 % 1009,1 hPa 0,0 l/m 0 min 0 min 0 W/m 3,2 km/h (1 Bft) 97,87 %
17.11.2019 18:20 4,7 C 3,9 C 3,3 C 92 % 1009,1 hPa 0,0 l/m 0 min 0 min 0 W/m 3,2 km/h (1 Bft) 95,74 %
17.11.2019 18:22 4,7 C 3,9 C 3,3 C 92 % 1009,2 hPa 0,0 l/m 0 min 0 min 0 W/m 0,0 km/h (0 Bft) 97,87 %
17.11.2019 18:24 4,7 C 3,9 C 3,3 C 92 % 1009,2 hPa 0,0 l/m 0 min 0 min 0 W/m 3,2 km/h (1 Bft) 97,87 %
17.11.2019 18:26 4,7 C 3,9 C 3,3 C 92 % 1009,1 hPa 0,0 l/m 0 min 0 min 0 W/m 6,4 km/h (2 Bft) 95,65 %
17.11.2019 18:28 4,7 C 3,9 C 3,3 C 92 % 1009,0 hPa 0,0 l/m 0 min 0 min 0 W/m 3,2 km/h (1 Bft) 97,87 %
17.11.2019 18:30 4,7 C 3,9 C 3,3 C 92 % 1008,9 hPa 0,0 l/m 0 min 0 min 0 W/m 3,2 km/h (1 Bft) 97,87 %
17.11.2019 18:32 4,7 C 3,9 C 3,3 C 92 % 1008,9 hPa 0,0 l/m 0 min 0 min 0 W/m 6,4 km/h (2 Bft) 95,74 %
17.11.2019 18:34 4,7 C 3,9 C 3,3 C 93 % 1009,0 hPa 0,0 l/m 0 min 2 min 0 W/m 9,7 km/h (2 Bft) 93,62 %
17.11.2019 18:36 4,6 C 3,9 C 3,3 C 93 % 1009,0 hPa 0,0 l/m 0 min 2 min 0 W/m 9,7 km/h (2 Bft) 97,87 %
17.11.2019 18:38 4,7 C 3,9 C 3,3 C 93 % 1008,9 hPa 0,0 l/m 0 min 2 min 0 W/m 6,4 km/h (2 Bft) 95,65 %
17.11.2019 18:40 4,6 C 3,9 C 3,3 C 93 % 1008,9 hPa 0,0 l/m 0 min 2 min 0 W/m 3,2 km/h (1 Bft) 95,74 %
17.11.2019 18:42 4,6 C 3,9 C 3,3 C 93 % 1009,0 hPa 0,0 l/m 0 min 2 min 0 W/m 3,2 km/h (1 Bft) 97,87 %
17.11.2019 18:44 4,6 C 3,9 C 3,3 C 93 % 1009,1 hPa 0,0 l/m 0 min 2 min 0 W/m 3,2 km/h (1 Bft) 100,00 %
17.11.2019 18:46 4,6 C 3,9 C 3,3 C 93 % 1009,3 hPa 0,0 l/m 0 min 0 min 0 W/m 12,9 km/h (3 Bft) 97,87 %
17.11.2019 18:48 4,6 C 3,9 C 3,3 C 93 % 1009,2 hPa 0,0 l/m 0 min 0 min 0 W/m 6,4 km/h (2 Bft) 97,87 %
17.11.2019 18:50 4,6 C 3,9 C 3,3 C 93 % 1009,3 hPa 0,0 l/m 0 min 2 min 0 W/m 0,0 km/h (0 Bft) 97,83 %
17.11.2019 18:52 4,6 C 3,9 C 3,3 C 93 % 1009,3 hPa 0,0 l/m 0 min 2 min 0 W/m 3,2 km/h (1 Bft) 100,00 %
17.11.2019 18:54 4,6 C 3,9 C 3,3 C 93 % 1009,3 hPa 0,0 l/m 0 min 2 min 0 W/m 0,0 km/h (0 Bft) 100,00 %
17.11.2019 18:56 4,6 C 3,3 C 3,3 C 93 % 1009,4 hPa 0,0 l/m 0 min 2 min 0 W/m 6,4 km/h (2 Bft) 100,00 %
17.11.2019 18:58 4,6 C 3,3 C 3,3 C 93 % 1009,4 hPa 0,0 l/m 0 min 2 min 0 W/m 3,2 km/h (1 Bft) 100,00 %
17.11.2019 19:00 4,6 C 3,3 C 3,3 C 93 % 1009,4 hPa 0,0 l/m 0 min 2 min 0 W/m 3,2 km/h (1 Bft) 97,83 %
17.11.2019 19:02 4,6 C 3,3 C 3,3 C 93 % 1009,4 hPa 0,0 l/m 0 min 2 min 0 W/m 0,0 km/h (0 Bft) 100,00 %
17.11.2019 19:04 4,6 C 3,3 C 2,8 C 93 % 1009,3 hPa 0,0 l/m 0 min 2 min 0 W/m 3,2 km/h (1 Bft) 100,00 %
17.11.2019 19:06 4,6 C 3,3 C 2,8 C 93 % 1009,3 hPa 0,0 l/m 0 min 2 min 0 W/m 0,0 km/h (0 Bft) 97,87 %
17.11.2019 19:08 4,6 C 3,3 C 2,8 C 93 % 1009,2 hPa 0,0 l/m 0 min 2 min 0 W/m 0,0 km/h (0 Bft) 100,00 %
17.11.2019 19:10 4,6 C 3,3 C 2,8 C 93 % 1009,2 hPa 0,2 l/m 0 min 2 min 0 W/m 0,0 km/h (0 Bft) 100,00 %
17.11.2019 19:12 4,6 C 3,3 C 2,8 C 93 % 1009,2 hPa 0,0 l/m 0 min 2 min 0 W/m 3,2 km/h (1 Bft) 100,00 %
17.11.2019 19:14 4,6 C 3,3 C 2,8 C 93 % 1009,3 hPa 0,0 l/m 0 min 2 min 0 W/m 3,2 km/h (1 Bft) 100,00 %
17.11.2019 19:16 4,6 C 3,3 C 2,8 C 93 % 1009,3 hPa 0,2 l/m 0 min 2 min 0 W/m 0,0 km/h (0 Bft) 100,00 %
17.11.2019 19:18 4,6 C 3,3 C 2,8 C 94 % 1009,3 hPa 0,0 l/m 0 min 2 min 0 W/m 3,2 km/h (1 Bft) 100,00 %
17.11.2019 19:20 4,6 C 3,3 C 2,8 C 94 % 1009,3 hPa 0,0 l/m 0 min 2 min 0 W/m 3,2 km/h (1 Bft) 100,00 %
17.11.2019 19:22 4,6 C 3,3 C 2,8 C 94 % 1009,2 hPa 0,0 l/m 0 min 2 min 0 W/m 0,0 km/h (0 Bft) 100,00 %
17.11.2019 19:24 4,6 C 3,3 C 2,8 C 94 % 1009,2 hPa 0,0 l/m 0 min 2 min 0 W/m 0,0 km/h (0 Bft) 100,00 %
17.11.2019 19:26 4,6 C 3,3 C 2,8 C 94 % 1009,1 hPa 0,2 l/m 0 min 2 min 0 W/m 3,2 km/h (1 Bft) 97,87 %
17.11.2019 19:28 4,6 C 3,3 C 2,8 C 94 % 1009,1 hPa 0,0 l/m 0 min 2 min 0 W/m 3,2 km/h (1 Bft) 97,87 %
17.11.2019 19:30 4,5 C 3,3 C 2,8 C 94 % 1009,1 hPa 0,2 l/m 0 min 2 min 0 W/m 3,2 km/h (1 Bft) 97,87 %
17.11.2019 19:32 4,5 C 3,3 C 2,8 C 94 % 1009,0 hPa 0,0 l/m 0 min 2 min 0 W/m 3,2 km/h (1 Bft) 97,87 %
17.11.2019 19:34 4,5 C 2,8 C 2,8 C 94 % 1009,0 hPa 0,0 l/m 0 min 2 min 0 W/m 3,2 km/h (1 Bft) 93,62 %
17.11.2019 19:36 4,4 C 3,3 C 2,8 C 94 % 1009,0 hPa 0,0 l/m 0 min 2 min 0 W/m 3,2 km/h (1 Bft) 97,83 %
17.11.2019 19:38 4,4 C 2,8 C 2,8 C 94 % 1009,0 hPa 0,0 l/m 0 min 2 min 0 W/m 3,2 km/h (1 Bft) 97,87 %
17.11.2019 19:40 4,4 C 2,8 C 2,8 C 94 % 1008,9 hPa 0,2 l/m 0 min 2 min 0 W/m 0,0 km/h (0 Bft) 97,87 %
17.11.2019 19:42 4,4 C 2,8 C 2,8 C 94 % 1008,9 hPa 0,0 l/m 0 min 2 min 0 W/m 6,4 km/h (2 Bft) 97,87 %
17.11.2019 19:44 4,4 C 2,8 C 2,8 C 94 % 1008,8 hPa 0,2 l/m 0 min 2 min 0 W/m 6,4 km/h (2 Bft) 95,74 %
17.11.2019 19:46 4,3 C 2,8 C 2,8 C 94 % 1008,8 hPa 0,0 l/m 0 min 2 min 0 W/m 6,4 km/h (2 Bft) 95,74 %
17.11.2019 19:48 4,3 C 2,8 C 2,8 C 94 % 1008,8 hPa 0,2 l/m 0 min 2 min 0 W/m 3,2 km/h (1 Bft) 95,65 %
17.11.2019 19:50 4,3 C 2,8 C 2,8 C 94 % 1008,7 hPa 0,0 l/m 0 min 2 min 0 W/m 3,2 km/h (1 Bft) 93,62 %
17.11.2019 19:52 4,3 C 2,8 C 2,8 C 94 % 1008,6 hPa 0,2 l/m 0 min 2 min 0 W/m 6,4 km/h (2 Bft) 95,74 %
17.11.2019 19:53 4,3 C 2,8 C 2,8 C 95 % 1008,6 hPa 0,0 l/m 0 min 1 min 0 W/m 6,4 km/h (2 Bft) 95,74 %
17.11.2019 19:56 4,3 C 2,8 C 2,8 C 95 % 1008,6 hPa 0,2 l/m 0 min 3 min 0 W/m 0,0 km/h (0 Bft) 68,09 %
17.11.2019 19:58 4,3 C 2,8 C 2,8 C 95 % 1008,6 hPa 0,2 l/m 0 min 2 min 0 W/m 3,2 km/h (1 Bft) 80,43 %
17.11.2019 20:00 4,3 C 2,8 C 2,8 C 95 % 1008,5 hPa 0,0 l/m 0 min 2 min 0 W/m 6,4 km/h (2 Bft) 95,74 %
17.11.2019 20:02 4,2 C 2,8 C 2,8 C 95 % 1008,6 hPa 0,2 l/m 0 min 2 min 0 W/m 6,4 km/h (2 Bft) 95,74 %
17.11.2019 20:04 4,2 C 2,8 C 2,8 C 95 % 1008,5 hPa 0,0 l/m 0 min 2 min 0 W/m 3,2 km/h (1 Bft) 95,74 %
17.11.2019 20:06 4,2 C 2,8 C 2,8 C 95 % 1008,6 hPa 0,2 l/m 0 min 2 min 0 W/m 3,2 km/h (1 Bft) 95,74 %
17.11.2019 20:08 4,2 C 2,8 C 2,8 C 95 % 1008,5 hPa 0,0 l/m 0 min 2 min 0 W/m 9,7 km/h (2 Bft) 95,74 %
17.11.2019 20:10 4,2 C 2,8 C 2,8 C 95 % 1008,5 hPa 0,0 l/m 0 min 2 min 0 W/m 16,1 km/h (3 Bft) 95,65 %
17.11.2019 20:12 4,1 C 2,8 C 2,8 C 95 % 1008,5 hPa 0,2 l/m 0 min 2 min 0 W/m 9,7 km/h (2 Bft) 95,74 %
17.11.2019 20:14 4,1 C 2,8 C 2,8 C 95 % 1008,5 hPa 0,0 l/m 0 min 2 min 0 W/m 6,4 km/h (2 Bft) 93,62 %
17.11.2019 20:16 4,1 C 2,8 C 2,8 C 95 % 1008,6 hPa 0,2 l/m 0 min 2 min 0 W/m 6,4 km/h (2 Bft) 93,62 %
17.11.2019 20:18 4,1 C 2,8 C 2,8 C 96 % 1008,5 hPa 0,0 l/m 0 min 2 min 0 W/m 6,4 km/h (2 Bft) 93,62 %
17.11.2019 20:20 4,1 C 2,8 C 2,8 C 96 % 1008,5 hPa 0,2 l/m 0 min 2 min 0 W/m 9,7 km/h (2 Bft) 95,74 %
17.11.2019 20:22 4,1 C 2,8 C 2,8 C 96 % 1008,6 hPa 0,0 l/m 0 min 2 min 0 W/m 9,7 km/h (2 Bft) 95,65 %
17.11.2019 20:24 4,1 C 2,8 C 2,8 C 96 % 1008,5 hPa 0,2 l/m 0 min 2 min 0 W/m 16,1 km/h (3 Bft) 93,62 %
17.11.2019 20:26 4,1 C 2,8 C 2,8 C 96 % 1008,6 hPa 0,0 l/m 0 min 2 min 0 W/m 6,4 km/h (2 Bft) 93,62 %
17.11.2019 20:28 4,1 C 2,8 C 2,8 C 96 % 1008,5 hPa 0,0 l/m 0 min 2 min 0 W/m 9,7 km/h (2 Bft) 93,62 %
17.11.2019 20:30 4,1 C 2,8 C 2,8 C 96 % 1008,6 hPa 0,0 l/m 0 min 2 min 0 W/m 6,4 km/h (2 Bft) 97,87 %
17.11.2019 20:32 4,1 C 2,8 C 2,8 C 96 % 1008,6 hPa 0,0 l/m 0 min 2 min 0 W/m 12,9 km/h (3 Bft) 97,87 %
17.11.2019 20:34 4,0 C 2,8 C 2,8 C 96 % 1008,6 hPa 0,0 l/m 0 min 2 min 0 W/m 6,4 km/h (2 Bft) 97,83 %
17.11.2019 20:36 4,0 C 2,8 C 2,8 C 96 % 1008,7 hPa 0,0 l/m 0 min 2 min 0 W/m 3,2 km/h (1 Bft) 97,87 %
17.11.2019 20:38 4,0 C 2,8 C 2,8 C 96 % 1008,7 hPa 0,0 l/m 0 min 2 min 0 W/m 3,2 km/h (1 Bft) 93,62 %
17.11.2019 20:40 4,0 C 2,8 C 2,8 C 96 % 1008,7 hPa 0,2 l/m 0 min 2 min 0 W/m 9,7 km/h (2 Bft) 97,87 %
17.11.2019 20:42 4,0 C 2,8 C 2,8 C 96 % 1008,7 hPa 0,0 l/m 0 min 2 min 0 W/m 9,7 km/h (2 Bft) 97,87 %
17.11.2019 20:44 4,0 C 2,8 C 2,8 C 96 % 1008,6 hPa 0,2 l/m 0 min 2 min 0 W/m 9,7 km/h (2 Bft) 97,87 %
17.11.2019 20:46 3,9 C 2,8 C 2,8 C 96 % 1008,6 hPa 0,0 l/m 0 min 2 min 0 W/m 6,4 km/h (2 Bft) 95,65 %
17.11.2019 20:48 3,9 C 2,8 C 2,8 C 96 % 1008,6 hPa 0,0 l/m 0 min 2 min 0 W/m 6,4 km/h (2 Bft) 95,74 %
17.11.2019 20:50 3,9 C 2,8 C 2,8 C 96 % 1008,5 hPa 0,0 l/m 0 min 2 min 0 W/m 6,4 km/h (2 Bft) 95,74 %
17.11.2019 20:52 3,9 C 2,8 C 2,8 C 97 % 1008,5 hPa 0,2 l/m 0 min 2 min 0 W/m 6,4 km/h (2 Bft) 95,74 %
17.11.2019 20:54 3,9 C 2,8 C 2,8 C 97 % 1008,6 hPa 0,2 l/m 0 min 2 min 0 W/m 3,2 km/h (1 Bft) 97,87 %
17.11.2019 20:56 3,9 C 2,8 C 2,8 C 97 % 1008,5 hPa 0,0 l/m 0 min 2 min 0 W/m 6,4 km/h (2 Bft) 97,83 %
17.11.2019 20:58 3,9 C 2,8 C 2,8 C 97 % 1008,5 hPa 0,0 l/m 0 min 2 min 0 W/m 9,7 km/h (2 Bft) 97,87 %
17.11.2019 21:00 3,9 C 2,8 C 2,8 C 97 % 1008,5 hPa 0,2 l/m 0 min 2 min 0 W/m 0,0 km/h (0 Bft) 54,35 %
17.11.2019 21:02 3,9 C 2,8 C 2,8 C 97 % 1008,4 hPa 0,0 l/m 0 min 2 min 0 W/m 6,4 km/h (2 Bft) 95,74 %
17.11.2019 21:04 3,9 C 2,8 C 2,8 C 97 % 1008,5 hPa 0,0 l/m 0 min 2 min 0 W/m 9,7 km/h (2 Bft) 95,74 %
17.11.2019 21:06 3,9 C 2,8 C 2,8 C 97 % 1008,6 hPa 0,2 l/m 0 min 2 min 0 W/m 16,1 km/h (3 Bft) 97,87 %
17.11.2019 21:08 3,9 C 2,8 C 2,8 C 97 % 1008,6 hPa 0,0 l/m 0 min 2 min 0 W/m 9,7 km/h (2 Bft) 97,83 %
17.11.2019 21:10 3,9 C 2,8 C 2,8 C 97 % 1008,7 hPa 0,4 l/m 0 min 2 min 0 W/m 3,2 km/h (1 Bft) 95,74 %
17.11.2019 21:12 3,8 C 2,8 C 2,8 C 97 % 1008,7 hPa 0,2 l/m 0 min 2 min 0 W/m 6,4 km/h (2 Bft) 97,87 %
17.11.2019 21:14 3,8 C 2,8 C 2,8 C 97 % 1008,7 hPa 0,2 l/m 0 min 2 min 0 W/m 6,4 km/h (2 Bft) 97,87 %
17.11.2019 21:16 3,8 C 2,8 C 2,8 C 97 % 1008,6 hPa 0,0 l/m 0 min 2 min 0 W/m 6,4 km/h (2 Bft) 97,87 %
17.11.2019 21:18 3,8 C 2,8 C 2,8 C 97 % 1008,7 hPa 0,2 l/m 0 min 2 min 0 W/m 9,7 km/h (2 Bft) 100,00 %
17.11.2019 21:20 3,8 C 2,8 C 2,8 C 97 % 1008,7 hPa 0,2 l/m 0 min 2 min 0 W/m 3,2 km/h (1 Bft) 100,00 %
17.11.2019 21:22 3,8 C 2,8 C 2,8 C 97 % 1008,7 hPa 0,0 l/m 0 min 2 min 0 W/m 3,2 km/h (1 Bft) 100,00 %
17.11.2019 21:24 3,8 C 2,8 C 2,8 C 97 % 1008,7 hPa 0,0 l/m 0 min 2 min 0 W/m 9,7 km/h (2 Bft) 100,00 %
17.11.2019 21:26 3,8 C 2,8 C 2,8 C 97 % 1008,6 hPa 0,0 l/m 0 min 2 min 0 W/m 6,4 km/h (2 Bft) 100,00 %
17.11.2019 21:28 3,8 C 2,8 C 2,8 C 97 % 1008,7 hPa 0,2 l/m 0 min 2 min 0 W/m 6,4 km/h (2 Bft) 97,87 %
17.11.2019 21:30 3,8 C 2,8 C 2,8 C 97 % 1008,7 hPa 0,0 l/m 0 min 2 min 0 W/m 12,9 km/h (3 Bft) 100,00 %
17.11.2019 21:32 3,8 C 2,8 C 2,8 C 97 % 1008,6 hPa 0,2 l/m 0 min 2 min 0 W/m 3,2 km/h (1 Bft) 100,00 %
17.11.2019 21:34 3,8 C 2,8 C 2,8 C 97 % 1008,6 hPa 0,0 l/m 0 min 2 min 0 W/m 6,4 km/h (2 Bft) 100,00 %
17.11.2019 21:36 3,8 C 2,8 C 2,8 C 97 % 1008,6 hPa 0,0 l/m 0 min 2 min 0 W/m 16,1 km/h (3 Bft) 100,00 %
17.11.2019 21:38 3,8 C 2,8 C 2,8 C 97 % 1008,6 hPa 0,2 l/m 0 min 2 min 0 W/m 6,4 km/h (2 Bft) 100,00 %
17.11.2019 21:40 3,8 C 2,8 C 2,8 C 97 % 1008,6 hPa 0,0 l/m 0 min 2 min 0 W/m 9,7 km/h (2 Bft) 100,00 %
17.11.2019 21:42 3,8 C 2,8 C 2,8 C 97 % 1008,5 hPa 0,2 l/m 0 min 2 min 0 W/m 6,4 km/h (2 Bft) 97,87 %
17.11.2019 21:44 3,8 C 2,8 C 2,8 C 97 % 1008,5 hPa 0,0 l/m 0 min 2 min 0 W/m 9,7 km/h (2 Bft) 97,83 %
17.11.2019 21:46 3,8 C 2,8 C 2,8 C 97 % 1008,5 hPa 0,2 l/m 0 min 2 min 0 W/m 6,4 km/h (2 Bft) 100,00 %
17.11.2019 21:48 3,8 C 2,8 C 2,8 C 97 % 1008,5 hPa 0,0 l/m 0 min 2 min 0 W/m 3,2 km/h (1 Bft) 100,00 %
17.11.2019 21:50 3,8 C 2,8 C 2,8 C 97 % 1008,4 hPa 0,2 l/m 0 min 2 min 0 W/m 9,7 km/h (2 Bft) 97,87 %
17.11.2019 21:52 3,8 C 2,8 C 2,8 C 97 % 1008,3 hPa 0,0 l/m 0 min 2 min 0 W/m 16,1 km/h (3 Bft) 100,00 %
17.11.2019 21:54 3,8 C 2,8 C 2,8 C 97 % 1008,2 hPa 0,0 l/m 0 min 2 min 0 W/m 12,9 km/h (3 Bft) 100,00 %
17.11.2019 21:56 3,8 C 2,8 C 2,8 C 97 % 1008,2 hPa 0,2 l/m 0 min 2 min 0 W/m 9,7 km/h (2 Bft) 100,00 %
17.11.2019 21:58 3,8 C 2,8 C 2,8 C 97 % 1008,1 hPa 0,2 l/m 0 min 2 min 0 W/m 6,4 km/h (2 Bft) 100,00 %
17.11.2019 22:00 3,8 C 2,8 C 2,8 C 97 % 1008,0 hPa 0,0 l/m 0 min 2 min 0 W/m 3,2 km/h (1 Bft) 100,00 %
17.11.2019 22:02 3,8 C 2,8 C 2,8 C 97 % 1008,0 hPa 0,2 l/m 0 min 2 min 0 W/m 12,9 km/h (3 Bft) 53,49 %
17.11.2019 22:04 3,8 C 2,8 C 2,8 C 97 % 1007,9 hPa 0,0 l/m 0 min 2 min 0 W/m 9,7 km/h (2 Bft) 100,00 %
17.11.2019 22:06 3,8 C 2,8 C 2,8 C 97 % 1007,8 hPa 0,2 l/m 0 min 2 min 0 W/m 6,4 km/h (2 Bft) 100,00 %
17.11.2019 22:08 3,8 C 2,8 C 2,8 C 97 % 1007,8 hPa 0,0 l/m 0 min 2 min 0 W/m 6,4 km/h (2 Bft) 97,83 %
17.11.2019 22:10 3,8 C 2,8 C 2,8 C 97 % 1007,7 hPa 0,0 l/m 0 min 2 min 0 W/m 3,2 km/h (1 Bft) 100,00 %
17.11.2019 22:12 3,8 C 2,8 C 2,8 C 98 % 1007,7 hPa 0,2 l/m 0 min 2 min 0 W/m 9,7 km/h (2 Bft) 100,00 %
17.11.2019 22:14 3,8 C 2,8 C 2,8 C 98 % 1007,6 hPa 0,0 l/m 0 min 2 min 0 W/m 12,9 km/h (3 Bft) 100,00 %
17.11.2019 22:16 3,8 C 2,8 C 2,8 C 98 % 1007,6 hPa 0,2 l/m 0 min 2 min 0 W/m 12,9 km/h (3 Bft) 100,00 %
17.11.2019 22:18 3,8 C 2,8 C 2,8 C 98 % 1007,6 hPa 0,0 l/m 0 min 2 min 0 W/m 9,7 km/h (2 Bft) 100,00 %
17.11.2019 22:20 3,8 C 2,8 C 2,8 C 98 % 1007,5 hPa 0,0 l/m 0 min 2 min 0 W/m 9,7 km/h (2 Bft) 97,87 %
17.11.2019 22:22 3,8 C 2,8 C 2,8 C 98 % 1007,5 hPa 0,2 l/m 0 min 2 min 0 W/m 6,4 km/h (2 Bft) 100,00 %
17.11.2019 22:24 3,8 C 2,8 C 2,8 C 98 % 1007,4 hPa 0,0 l/m 0 min 2 min 0 W/m 16,1 km/h (3 Bft) 100,00 %
17.11.2019 22:26 3,8 C 2,8 C 2,8 C 98 % 1007,3 hPa 0,0 l/m 0 min 2 min 0 W/m 16,1 km/h (3 Bft) 100,00 %
17.11.2019 22:28 3,8 C 2,8 C 2,8 C 98 % 1007,4 hPa 0,0 l/m 0 min 2 min 0 W/m 9,7 km/h (2 Bft) 100,00 %
17.11.2019 22:30 3,8 C 2,8 C 2,8 C 98 % 1007,3 hPa 0,2 l/m 0 min 2 min 0 W/m 6,4 km/h (2 Bft) 100,00 %
17.11.2019 22:32 3,8 C 2,8 C 2,8 C 98 % 1007,3 hPa 0,0 l/m 0 min 2 min 0 W/m 9,7 km/h (2 Bft) 95,74 %
17.11.2019 22:34 3,8 C 2,8 C 2,8 C 98 % 1007,3 hPa 0,0 l/m 0 min 2 min 0 W/m 6,4 km/h (2 Bft) 97,87 %
17.11.2019 22:36 3,8 C 2,8 C 2,8 C 98 % 1007,4 hPa 0,0 l/m 0 min 2 min 0 W/m 6,4 km/h (2 Bft) 97,87 %
17.11.2019 22:38 3,8 C 2,8 C 2,8 C 98 % 1007,3 hPa 0,0 l/m 0 min 2 min 0 W/m 6,4 km/h (2 Bft) 97,87 %
17.11.2019 22:40 3,8 C 2,8 C 2,8 C 98 % 1007,3 hPa 0,2 l/m 0 min 2 min 0 W/m 6,4 km/h (2 Bft) 95,74 %
17.11.2019 22:42 3,8 C 2,8 C 2,8 C 98 % 1007,3 hPa 0,0 l/m 0 min 2 min 0 W/m 9,7 km/h (2 Bft) 97,83 %
17.11.2019 22:44 3,8 C 2,8 C 2,8 C 98 % 1007,3 hPa 0,0 l/m 0 min 2 min 0 W/m 3,2 km/h (1 Bft) 97,87 %
17.11.2019 22:46 3,8 C 2,8 C 2,8 C 98 % 1007,3 hPa 0,0 l/m 0 min 2 min 0 W/m 25,7 km/h (4 Bft) 93,62 %
17.11.2019 22:48 3,8 C 2,8 C 2,8 C 98 % 1007,2 hPa 0,2 l/m 0 min 2 min 0 W/m 3,2 km/h (1 Bft) 97,87 %
17.11.2019 22:50 3,8 C 2,8 C 2,8 C 98 % 1007,3 hPa 0,0 l/m 0 min 2 min 0 W/m 9,7 km/h (2 Bft) 95,74 %
17.11.2019 22:52 3,8 C 2,8 C 2,8 C 98 % 1007,3 hPa 0,0 l/m 0 min 2 min 0 W/m 12,9 km/h (3 Bft) 97,87 %
17.11.2019 22:54 3,8 C 2,8 C 2,8 C 98 % 1007,4 hPa 0,0 l/m 0 min 2 min 0 W/m 16,1 km/h (3 Bft) 97,83 %
17.11.2019 22:56 3,8 C 2,8 C 2,8 C 98 % 1007,5 hPa 0,0 l/m 0 min 2 min 0 W/m 12,9 km/h (3 Bft) 95,74 %
17.11.2019 22:58 3,8 C 2,8 C 2,8 C 98 % 1007,5 hPa 0,0 l/m 0 min 2 min 0 W/m 9,7 km/h (2 Bft) 97,87 %
17.11.2019 23:00 3,8 C 2,8 C 2,8 C 98 % 1007,5 hPa 0,2 l/m 0 min 2 min 0 W/m 9,7 km/h (2 Bft) 97,87 %
17.11.2019 23:02 3,8 C 2,8 C 2,8 C 98 % 1007,5 hPa 0,0 l/m 0 min 2 min 0 W/m 12,9 km/h (3 Bft) 97,87 %
17.11.2019 23:04 3,8 C 2,8 C 2,8 C 98 % 1007,3 hPa 0,0 l/m 0 min 2 min 0 W/m 6,4 km/h (2 Bft) 48,89 %
17.11.2019 23:06 3,8 C 2,8 C 2,8 C 98 % 1007,3 hPa 0,0 l/m 0 min 2 min 0 W/m 12,9 km/h (3 Bft) 46,15 %
17.11.2019 23:08 3,8 C 2,8 C 2,8 C 98 % 1007,3 hPa 0,0 l/m 0 min 2 min 0 W/m 9,7 km/h (2 Bft) 93,62 %
17.11.2019 23:10 3,8 C 2,8 C 2,8 C 98 % 1007,3 hPa 0,0 l/m 0 min 2 min 0 W/m 9,7 km/h (2 Bft) 95,74 %
17.11.2019 23:12 3,8 C 2,8 C 2,8 C 98 % 1007,2 hPa 0,0 l/m 0 min 2 min 0 W/m 0,0 km/h (0 Bft) 93,62 %
17.11.2019 23:14 3,8 C 2,8 C 2,8 C 98 % 1007,2 hPa 0,0 l/m 0 min 2 min 0 W/m 12,9 km/h (3 Bft) 93,62 %
17.11.2019 23:16 3,8 C 2,8 C 2,8 C 98 % 1007,3 hPa 0,2 l/m 0 min 2 min 0 W/m 9,7 km/h (2 Bft) 93,48 %
17.11.2019 23:18 3,8 C 2,8 C 2,8 C 98 % 1007,1 hPa 0,0 l/m 0 min 0 min 0 W/m 9,7 km/h (2 Bft) 95,74 %
17.11.2019 23:20 3,8 C 2,8 C 2,8 C 98 % 1007,2 hPa 0,0 l/m 0 min 0 min 0 W/m 3,2 km/h (1 Bft) 93,62 %
17.11.2019 23:22 3,8 C 2,8 C 2,8 C 98 % 1007,1 hPa 0,0 l/m 0 min 0 min 0 W/m 16,1 km/h (3 Bft) 95,74 %
17.11.2019 23:24 3,8 C 2,8 C 2,8 C 98 % 1006,9 hPa 0,0 l/m 0 min 2 min 0 W/m 22,5 km/h (4 Bft) 95,74 %
17.11.2019 23:26 3,8 C 2,8 C 2,8 C 98 % 1006,8 hPa 0,0 l/m 0 min 2 min 0 W/m 9,7 km/h (2 Bft) 95,74 %
17.11.2019 23:28 3,8 C 2,8 C 2,8 C 98 % 1006,9 hPa 0,0 l/m 0 min 2 min 0 W/m 9,7 km/h (2 Bft) 93,48 %
17.11.2019 23:30 3,8 C 2,8 C 2,8 C 98 % 1007,0 hPa 0,0 l/m 0 min 2 min 0 W/m 29,0 km/h (5 Bft) 95,74 %
17.11.2019 23:32 3,8 C 2,8 C 2,8 C 98 % 1006,9 hPa 0,0 l/m 0 min 0 min 0 W/m 12,9 km/h (3 Bft) 95,74 %
17.11.2019 23:34 3,8 C 2,8 C 2,8 C 98 % 1006,9 hPa 0,0 l/m 0 min 2 min 0 W/m 16,1 km/h (3 Bft) 95,74 %
17.11.2019 23:36 3,8 C 2,8 C 2,8 C 98 % 1006,9 hPa 0,0 l/m 0 min 0 min 0 W/m 12,9 km/h (3 Bft) 93,62 %
17.11.2019 23:38 3,8 C 2,8 C 2,8 C 98 % 1007,0 hPa 0,0 l/m 0 min 0 min 0 W/m 19,3 km/h (3 Bft) 95,74 %
17.11.2019 23:40 3,8 C 2,8 C 2,8 C 99 % 1007,0 hPa 0,0 l/m 0 min 2 min 0 W/m 6,4 km/h (2 Bft) 95,65 %
17.11.2019 23:42 3,8 C 2,8 C 2,8 C 99 % 1007,0 hPa 0,0 l/m 0 min 0 min 0 W/m 6,4 km/h (2 Bft) 95,74 %
17.11.2019 23:44 3,8 C 2,8 C 2,8 C 99 % 1007,0 hPa 0,0 l/m 0 min 0 min 0 W/m 16,1 km/h (3 Bft) 95,74 %
17.11.2019 23:46 3,8 C 2,8 C 2,8 C 99 % 1007,0 hPa 0,2 l/m 0 min 0 min 0 W/m 12,9 km/h (3 Bft) 93,62 %
17.11.2019 23:48 3,8 C 2,8 C 2,8 C 99 % 1007,0 hPa 0,0 l/m 0 min 0 min 0 W/m 16,1 km/h (3 Bft) 93,62 %
17.11.2019 23:50 3,8 C 2,8 C 2,8 C 99 % 1006,9 hPa 0,0 l/m 0 min 2 min 0 W/m 9,7 km/h (2 Bft) 95,74 %
17.11.2019 23:52 3,8 C 2,8 C 2,8 C 99 % 1006,8 hPa 0,0 l/m 0 min 0 min 0 W/m 9,7 km/h (2 Bft) 95,65 %
17.11.2019 23:54 3,8 C 2,8 C 2,8 C 99 % 1006,8 hPa 0,0 l/m 0 min 2 min 0 W/m 16,1 km/h (3 Bft) 93,62 %
17.11.2019 23:56 3,8 C 2,8 C 2,8 C 99 % 1006,8 hPa 0,0 l/m 0 min 2 min 0 W/m 12,9 km/h (3 Bft) 95,74 %
17.11.2019 23:58 3,8 C 2,8 C 2,8 C 99 % 1006,7 hPa 0,0 l/m 0 min 2 min 0 W/m 12,9 km/h (3 Bft) 95,74 %
_ Min-Zeit 08:36 07:48 05:54 15:30 23:58 - - - - 05:28 23:06
Minimum _ -0,2 C -1,7 C -1,7 C 89 % 1006,7 hPa - - - - 0,0 km/h (0 Bft) 46,15 %
_ Max-Zeit 13:24 12:30 12:38 11:38 02:06 21:10 11:22 19:56 11:38 23:30 00:02
Maximum _ 6,1 C 8,3 C 5,6 C 99 % 1013,0 hPa 0,4 l/m 2 min 3 min 220 W/m 29,0 km/h
W-NW (5 Bft)
100,00 %
Durchschnitt _ 3,0 C 2,6 C 2,1 C 95 % 1011,0 hPa #9,6 l/m #1:06 h #5:00 h 87 W/m 5,5 km/h (1 Bft) 96,96 %
© 2019 W. Hausmann